Observation data for Palo Duro Canyon State Park Floor on 05/24/2019      Previous  Date  Next       Current Mesonet Observations  Soil Data  Daily Summary Page  Observations in Plain Language
KPD2 240500Z 11013G19KT 22/17 A2988 RMK A01 T02230173  RH  073%=      5-min Rain = 0
KPD2 240501Z 11014G19KT 22/17 A2989 RMK A01 T02230168  RH  071%=      5-min Rain = 0
KPD2 240502Z 12017G22KT 23/17 A299 RMK A01 T02250168  RH  070%=      5-min Rain = 0
KPD2 240503Z 12013G19KT 23/17 A299 RMK A01 T02270165  RH  068%=      5-min Rain = 0
KPD2 240504Z 12017KT 23/17 A299 RMK A01 T02280165  RH  068%=      5-min Rain = 0
KPD2 240505Z 12013G19KT 23/17 A299 RMK A01 T02280166  RH  068%=      5-min Rain = 0
KPD2 240506Z 11014G19KT 23/17 A299 RMK A01 T02290167  RH  068%=      5-min Rain = 0
KPD2 240507Z 12012G17KT 23/17 A299 RMK A01 T02290168  RH  069%=      5-min Rain = 0
KPD2 240508Z 13010G16KT 23/17 A2989 RMK A01 T02290170  RH  069%=      5-min Rain = 0
KPD2 240509Z 11013G20KT 23/17 A2989 RMK A01 T02280171  RH  070%=      5-min Rain = 0
KPD2 240510Z 11010G16KT 23/17 A2988 RMK A01 T02270167  RH  069%=      5-min Rain = 0
KPD2 240511Z 12014G19KT 23/17 A2988 RMK A01 T02260166  RH  068%=      5-min Rain = 0
KPD2 240512Z 11015G21KT 23/16 A2987 RMK A01 T02270164  RH  067%=      5-min Rain = 0
KPD2 240513Z 11012G20KT 23/16 A2987 RMK A01 T02290164  RH  067%=      5-min Rain = 0
KPD2 240514Z 15012G20KT 23/17 A2986 RMK A01 T02300166  RH  067%=      5-min Rain = 0
KPD2 240515Z 15013KT 23/17 A2986 RMK A01 T02300167  RH  067%=      5-min Rain = 0
KPD2 240516Z 14012KT 23/17 A2986 RMK A01 T02290168  RH  068%=      5-min Rain = 0
KPD2 240517Z 13013G18KT 23/16 A2986 RMK A01 T02280159  RH  065%=      5-min Rain = 0
KPD2 240518Z 14014KT 23/15 A2987 RMK A01 T02310150  RH  060%=      5-min Rain = 0
KPD2 240519Z 15011KT 24/15 A2988 RMK A01 T02350147  RH  058%=      5-min Rain = 0
KPD2 240520Z 18009G14KT 24/16 A2989 RMK A01 T02370155  RH  060%=      5-min Rain = 0
KPD2 240521Z 19007KT 24/16 A299 RMK A01 T02360161  RH  062%=      5-min Rain = 0
KPD2 240522Z 20006KT 24/16 A2992 RMK A01 T02350161  RH  063%=      5-min Rain = 0
KPD2 240523Z 26006KT 23/17 A2993 RMK A01 T02340165  RH  065%=      5-min Rain = 0
KPD2 240524Z 28010KT 23/17 A2994 RMK A01 T02310166  RH  067%=      5-min Rain = 0
KPD2 240525Z 32008G14KT 22/16 A2994 RMK A01 T02230155  RH  065%=      5-min Rain = 0
KPD2 240526Z 28009G14KT 21/15 A2995 RMK A01 T02120152  RH  069%=      5-min Rain = 0
KPD2 240527Z 28009G14KT 21/16 A2995 RMK A01 T02060155  RH  073%=      5-min Rain = 0
KPD2 240528Z 29008G13KT 21/16 A2995 RMK A01 T02060157  RH  073%=      5-min Rain = 0
KPD2 240529Z 29009KT 21/16 A2995 RMK A01 T02080157  RH  072%=      5-min Rain = 0
KPD2 240530Z 30007G12KT 21/16 A2995 RMK A01 T02080156  RH  072%=      5-min Rain = 0
KPD2 240531Z 33006KT 21/16 A2995 RMK A01 T02080155  RH  072%=      5-min Rain = 0
KPD2 240532Z 29003KT 21/15 A2994 RMK A01 T02070154  RH  071%=      5-min Rain = 0
KPD2 240533Z 33003KT 21/15 A2994 RMK A01 T02070153  RH  071%=      5-min Rain = 0
KPD2 240534Z 02005KT 21/16 A2993 RMK A01 T02070156  RH  073%=      5-min Rain = 0
KPD2 240535Z 04005KT 21/16 A2993 RMK A01 T02060157  RH  074%=      5-min Rain = 0
KPD2 240536Z 06005KT 20/16 A2993 RMK A01 T02040157  RH  074%=      5-min Rain = 0
KPD2 240537Z 07004KT 20/15 A2992 RMK A01 T02030153  RH  073%=      5-min Rain = 0
KPD2 240538Z 06004KT 20/15 A2991 RMK A01 T02020151  RH  072%=      5-min Rain = 0
KPD2 240539Z 07004KT 20/15 A2991 RMK A01 T02030152  RH  072%=      5-min Rain = 0
KPD2 240540Z 11004KT 20/15 A299 RMK A01 T02030153  RH  073%=      5-min Rain = 0
KPD2 240541Z 13005KT 20/16 A2991 RMK A01 T02030156  RH  074%=      5-min Rain = 0
KPD2 240542Z 14008KT 20/15 A2991 RMK A01 T02040154  RH  073%=      5-min Rain = 0
KPD2 240543Z 11008KT 20/16 A2991 RMK A01 T02040155  RH  074%=      5-min Rain = 0
KPD2 240544Z 11008KT 20/16 A299 RMK A01 T02040156  RH  074%=      5-min Rain = 0
KPD2 240545Z 12008KT 20/16 A299 RMK A01 T02040156  RH  074%=      5-min Rain = 0
KPD2 240546Z 12011KT 20/16 A2989 RMK A01 T02030155  RH  074%=      5-min Rain = 0
KPD2 240547Z 13010KT 20/15 A2989 RMK A01 T02030152  RH  072%=      5-min Rain = 0
KPD2 240548Z 13009KT 20/15 A2989 RMK A01 T02040150  RH  071%=      5-min Rain = 0
KPD2 240549Z 13008KT 21/15 A2989 RMK A01 T02050150  RH  070%=      5-min Rain = 0
KPD2 240550Z 13004G9KT 21/15 A299 RMK A01 T02060151  RH  071%=      5-min Rain = 0
KPD2 240551Z 26007KT 21/15 A2992 RMK A01 T02060151  RH  071%=      5-min Rain = 0.01
KPD2 240552Z 28008G14KT 21/15 A2994 RMK A01 T02060147  RH  069%=      5-min Rain = 0
KPD2 240553Z 29011G17KT 21/15 A2995 RMK A01 T02070150  RH  070%=      5-min Rain = 0
KPD2 240554Z 31012KT 20/15 A2995 RMK A01 T02040154  RH  073%=      5-min Rain = 0
KPD2 240555Z 29007KT 20/15 A2995 RMK A01 T02000154  RH  075%=      5-min Rain = 0
KPD2 240556Z 33004KT 20/15 A2994 RMK A01 T01970154  RH  076%=      5-min Rain = 0
KPD2 240557Z 01005KT 20/16 A2993 RMK A01 T01950155  RH  078%=      5-min Rain = 0
KPD2 240558Z 05008KT 19/15 A2991 RMK A01 T01940152  RH  077%=      5-min Rain = 0
KPD2 240559Z 05007KT 19/15 A299 RMK A01 T01930146  RH  074%=      5-min Rain = 0
KPD2 240600Z 05008KT 20/14 A2988 RMK A01 T01950138  RH  070%=      5-min Rain = 0
KPD2 240601Z 06007KT 20/14 A2987 RMK A01 T01990136  RH  067%=      5-min Rain = 0
KPD2 240602Z 05009KT 20/14 A2986 RMK A01 T02010138  RH  067%=      5-min Rain = 0
KPD2 240603Z 02010KT 20/14 A2986 RMK A01 T02030139  RH  067%=      5-min Rain = 0
KPD2 240604Z 36007KT 20/14 A2988 RMK A01 T02020141  RH  068%=      5-min Rain = 0
KPD2 240605Z 25007KT 20/14 A299 RMK A01 T02020139  RH  067%=      5-min Rain = 0
KPD2 240606Z 24005KT 20/14 A2991 RMK A01 T02020142  RH  068%=      5-min Rain = 0
KPD2 240607Z 25006KT 20/14 A2991 RMK A01 T02020142  RH  069%=      5-min Rain = 0
KPD2 240608Z 20002KT 20/14 A299 RMK A01 T02010139  RH  067%=      5-min Rain = 0
KPD2 240609Z 08004KT 20/13 A2988 RMK A01 T02020133  RH  065%=      5-min Rain = 0
KPD2 240610Z 04005KT 21/13 A2987 RMK A01 T02060131  RH  062%=      5-min Rain = 0
KPD2 240611Z 01005KT 21/13 A2986 RMK A01 T02090130  RH  061%=      5-min Rain = 0
KPD2 240612Z 32003KT 21/13 A2986 RMK A01 T02110129  RH  059%=      5-min Rain = 0
KPD2 240613Z 27006KT 21/13 A2988 RMK A01 T02140132  RH  059%=      5-min Rain = 0
KPD2 240614Z 28006KT 22/14 A2989 RMK A01 T02150136  RH  061%=      5-min Rain = 0
KPD2 240615Z 26009KT 21/14 A299 RMK A01 T02140136  RH  061%=      5-min Rain = 0
KPD2 240616Z 28006KT 21/14 A2989 RMK A01 T02130135  RH  061%=      5-min Rain = 0
KPD2 240617Z 30007KT 21/14 A2989 RMK A01 T02110136  RH  062%=      5-min Rain = 0
KPD2 240618Z 32008KT 21/14 A2989 RMK A01 T02090138  RH  064%=      5-min Rain = 0
KPD2 240619Z 30006KT 21/14 A2991 RMK A01 T02060140  RH  066%=      5-min Rain = 0
KPD2 240620Z 24006KT 20/14 A2993 RMK A01 T02040141  RH  067%=      5-min Rain = 0
KPD2 240621Z 24007G16KT 20/14 A2994 RMK A01 T02020137  RH  066%=      5-min Rain = 0
KPD2 240622Z 22009KT 20/13 A2995 RMK A01 T02030127  RH  062%=      5-min Rain = 0
KPD2 240623Z 22010G17KT 21/12 A2995 RMK A01 T02050124  RH  060%=      5-min Rain = 0
KPD2 240624Z 22008G15KT 21/12 A2995 RMK A01 T02070122  RH  058%=      5-min Rain = 0
KPD2 240625Z 22006KT 21/12 A2995 RMK A01 T02100122  RH  057%=      5-min Rain = 0
KPD2 240626Z 23009KT 21/12 A2994 RMK A01 T02110121  RH  057%=      5-min Rain = 0
KPD2 240627Z 22006G12KT 21/12 A2993 RMK A01 T02110121  RH  056%=      5-min Rain = 0
KPD2 240628Z 25006KT 21/12 A2992 RMK A01 T02110120  RH  056%=      5-min Rain = 0
KPD2 240629Z 23006KT 21/12 A2992 RMK A01 T02110120  RH  056%=      5-min Rain = 0
KPD2 240630Z 26005KT 21/12 A2992 RMK A01 T02120121  RH  056%=      5-min Rain = 0
KPD2 240631Z 24005KT 21/12 A2991 RMK A01 T02110121  RH  056%=      5-min Rain = 0
KPD2 240632Z 25003KT 21/12 A299 RMK A01 T02110122  RH  057%=      5-min Rain = 0
KPD2 240633Z 26004KT 21/12 A299 RMK A01 T02110122  RH  057%=      5-min Rain = 0
KPD2 240634Z 27004KT 21/12 A2991 RMK A01 T02110123  RH  057%=      5-min Rain = 0
KPD2 240635Z 26006KT 21/12 A2992 RMK A01 T02100123  RH  057%=      5-min Rain = 0
KPD2 240636Z 27005KT 21/12 A2993 RMK A01 T02100123  RH  057%=      5-min Rain = 0
KPD2 240637Z 24005KT 21/12 A2994 RMK A01 T02100123  RH  058%=      5-min Rain = 0
KPD2 240638Z 24007G13KT 21/12 A2994 RMK A01 T02100124  RH  058%=      5-min Rain = 0
KPD2 240639Z 23008KT 21/12 A2994 RMK A01 T02100124  RH  058%=      5-min Rain = 0
KPD2 240640Z 23006KT 21/13 A2994 RMK A01 T02100125  RH  058%=      5-min Rain = 0
KPD2 240641Z 23009KT 21/13 A2995 RMK A01 T02100125  RH  058%=      5-min Rain = 0
KPD2 240642Z 23009G14KT 21/12 A2995 RMK A01 T02100124  RH  058%=      5-min Rain = 0
KPD2 240643Z 24006G11KT 21/12 A2995 RMK A01 T02100124  RH  058%=      5-min Rain = 0
KPD2 240644Z 22009G15KT 21/13 A2995 RMK A01 T02100125  RH  058%=      5-min Rain = 0
KPD2 240645Z 22005KT 21/13 A2995 RMK A01 T02100125  RH  058%=      5-min Rain = 0
KPD2 240646Z 22005KT 21/13 A2995 RMK A01 T02100125  RH  058%=      5-min Rain = 0
KPD2 240647Z 21007KT 21/13 A2996 RMK A01 T02100125  RH  058%=      5-min Rain = 0
KPD2 240648Z 20008KT 21/12 A2996 RMK A01 T02100124  RH  058%=      5-min Rain = 0
KPD2 240649Z 21008KT 21/12 A2996 RMK A01 T02110124  RH  057%=      5-min Rain = 0
KPD2 240650Z 22008KT 21/12 A2995 RMK A01 T02120124  RH  057%=      5-min Rain = 0
KPD2 240651Z 22006G11KT 21/12 A2995 RMK A01 T02130123  RH  057%=      5-min Rain = 0
KPD2 240652Z 19006KT 21/12 A2995 RMK A01 T02140123  RH  056%=      5-min Rain = 0
KPD2 240653Z 17007KT 22/12 A2994 RMK A01 T02150122  RH  056%=      5-min Rain = 0
KPD2 240654Z 17010KT 22/12 A2993 RMK A01 T02160124  RH  056%=      5-min Rain = 0
KPD2 240655Z 16010KT 22/12 A2993 RMK A01 T02170123  RH  055%=      5-min Rain = 0
KPD2 240656Z 15010KT 22/12 A2992 RMK A01 T02180124  RH  055%=      5-min Rain = 0
KPD2 240657Z 12013KT 22/13 A299 RMK A01 T02180126  RH  056%=      5-min Rain = 0
KPD2 240658Z 13012G17KT 22/13 A2989 RMK A01 T02160128  RH  057%=      5-min Rain = 0
KPD2 240659Z 13012KT 21/13 A2987 RMK A01 T02140130  RH  058%=      5-min Rain = 0
KPD2 240700Z 12010KT 21/13 A2986 RMK A01 T02120132  RH  060%=      5-min Rain = 0
KPD2 240701Z 11012G19KT 21/13 A2985 RMK A01 T02100131  RH  061%=      5-min Rain = 0
KPD2 240702Z 11011G16KT 21/13 A2985 RMK A01 T02080129  RH  060%=      5-min Rain = 0
KPD2 240703Z 11012KT 21/13 A2984 RMK A01 T02070129  RH  061%=      5-min Rain = 0
KPD2 240704Z 09012G17KT 21/13 A2984 RMK A01 T02070127  RH  060%=      5-min Rain = 0
KPD2 240705Z 09008G15KT 21/13 A2984 RMK A01 T02070126  RH  059%=      5-min Rain = 0
KPD2 240706Z 12009G15KT 21/13 A2985 RMK A01 T02070129  RH  061%=      5-min Rain = 0
KPD2 240707Z 13011G18KT 21/13 A2986 RMK A01 T02070131  RH  061%=      5-min Rain = 0
KPD2 240708Z 14008KT 21/13 A2987 RMK A01 T02060130  RH  062%=      5-min Rain = 0
KPD2 240709Z 15007KT 21/13 A2987 RMK A01 T02060130  RH  062%=      5-min Rain = 0
KPD2 240710Z 14005KT 21/13 A2987 RMK A01 T02050130  RH  062%=      5-min Rain = 0
KPD2 240711Z 14003KT 21/13 A2987 RMK A01 T02050130  RH  062%=      5-min Rain = 0
KPD2 240712Z 15002KT 20/13 A2987 RMK A01 T02040130  RH  062%=      5-min Rain = 0
KPD2 240713Z 24003KT 20/13 A2988 RMK A01 T02040130  RH  062%=      5-min Rain = 0
KPD2 240714Z 24003KT 20/13 A2988 RMK A01 T02040132  RH  063%=      5-min Rain = 0
KPD2 240715Z 27002KT 20/13 A2988 RMK A01 T02030131  RH  063%=      5-min Rain = 0
KPD2 240716Z 30004KT 20/13 A2987 RMK A01 T02020131  RH  063%=      5-min Rain = 0
KPD2 240717Z 29004KT 20/13 A2988 RMK A01 T02010131  RH  064%=      5-min Rain = 0
KPD2 240718Z 27004KT 20/13 A2989 RMK A01 T02010133  RH  065%=      5-min Rain = 0
KPD2 240719Z 28005KT 20/13 A2989 RMK A01 T02000133  RH  065%=      5-min Rain = 0
KPD2 240720Z 31005KT 20/13 A2989 RMK A01 T01990132  RH  065%=      5-min Rain = 0
KPD2 240721Z 32005KT 20/13 A2989 RMK A01 T01990132  RH  065%=      5-min Rain = 0
KPD2 240722Z 30005KT 20/13 A2991 RMK A01 T01990130  RH  065%=      5-min Rain = 0
KPD2 240723Z 28005KT 20/13 A2992 RMK A01 T01990131  RH  065%=      5-min Rain = 0
KPD2 240724Z 26005KT 20/13 A2992 RMK A01 T02000132  RH  065%=      5-min Rain = 0
KPD2 240725Z 26005KT 20/13 A2992 RMK A01 T02000131  RH  064%=      5-min Rain = 0
KPD2 240726Z 27004KT 20/13 A2991 RMK A01 T02000130  RH  064%=      5-min Rain = 0
KPD2 240727Z 33004KT 20/13 A2989 RMK A01 T02000129  RH  064%=      5-min Rain = 0
KPD2 240728Z 34005KT 20/13 A2988 RMK A01 T02000131  RH  064%=      5-min Rain = 0
KPD2 240729Z 01007KT 20/13 A2986 RMK A01 T02000131  RH  064%=      5-min Rain = 0
KPD2 240730Z 02006KT 20/13 A2985 RMK A01 T01990131  RH  065%=      5-min Rain = 0
KPD2 240731Z 04006KT 20/13 A2984 RMK A01 T01990130  RH  064%=      5-min Rain = 0
KPD2 240732Z 07007KT 20/13 A2982 RMK A01 T01990129  RH  064%=      5-min Rain = 0
KPD2 240733Z 07007KT 20/13 A2982 RMK A01 T01990128  RH  063%=      5-min Rain = 0
KPD2 240734Z 09004KT 20/13 A2982 RMK A01 T02000126  RH  062%=      5-min Rain = 0
KPD2 240735Z 12005KT 20/13 A2983 RMK A01 T02020126  RH  062%=      5-min Rain = 0
KPD2 240736Z 14007KT 20/13 A2984 RMK A01 T02040128  RH  062%=      5-min Rain = 0
KPD2 240737Z 15007KT 21/13 A2986 RMK A01 T02050130  RH  062%=      5-min Rain = 0
KPD2 240738Z 19009KT 21/13 A2989 RMK A01 T02050130  RH  062%=      5-min Rain = 0
KPD2 240739Z 20011KT 21/13 A2992 RMK A01 T02050132  RH  063%=      5-min Rain = 0
KPD2 240740Z 20008KT 20/13 A2994 RMK A01 T02040131  RH  063%=      5-min Rain = 0
KPD2 240741Z 20008KT 20/13 A2995 RMK A01 T02040131  RH  063%=      5-min Rain = 0
KPD2 240742Z 20009KT 20/13 A2994 RMK A01 T02040129  RH  062%=      5-min Rain = 0
KPD2 240743Z 18005KT 21/13 A2994 RMK A01 T02050129  RH  061%=      5-min Rain = 0
KPD2 240744Z 18004KT 21/13 A2994 RMK A01 T02060129  RH  061%=      5-min Rain = 0
KPD2 240745Z 19006KT 21/13 A2994 RMK A01 T02070129  RH  061%=      5-min Rain = 0
KPD2 240746Z 18004KT 21/13 A2994 RMK A01 T02070128  RH  060%=      5-min Rain = 0
KPD2 240747Z 20005KT 21/13 A2994 RMK A01 T02080128  RH  060%=      5-min Rain = 0
KPD2 240748Z 20003KT 21/13 A2994 RMK A01 T02090127  RH  060%=      5-min Rain = 0
KPD2 240749Z 18004KT 21/13 A2993 RMK A01 T02090129  RH  060%=      5-min Rain = 0
KPD2 240750Z 18004KT 21/13 A2993 RMK A01 T02090128  RH  060%=      5-min Rain = 0
KPD2 240751Z 19003KT 21/13 A2993 RMK A01 T02100126  RH  059%=      5-min Rain = 0
KPD2 240752Z 16003KT 21/13 A2993 RMK A01 T02110126  RH  058%=      5-min Rain = 0
KPD2 240753Z 15004KT 21/13 A2993 RMK A01 T02110129  RH  059%=      5-min Rain = 0
KPD2 240754Z 15003KT 21/13 A2993 RMK A01 T02110128  RH  059%=      5-min Rain = 0
KPD2 240755Z 15005KT 21/13 A2993 RMK A01 T02110126  RH  058%=      5-min Rain = 0
KPD2 240756Z 16007KT 21/13 A2993 RMK A01 T02110127  RH  059%=      5-min Rain = 0
KPD2 240757Z 14006KT 21/13 A2993 RMK A01 T02110128  RH  059%=      5-min Rain = 0
KPD2 240758Z 15005KT 21/13 A2993 RMK A01 T02110129  RH  059%=      5-min Rain = 0
KPD2 240759Z 16006KT 21/13 A2993 RMK A01 T02100129  RH  060%=      5-min Rain = 0
KPD2 240800Z 14005KT 21/13 A2993 RMK A01 T02100129  RH  060%=      5-min Rain = 0
KPD2 240801Z 15006KT 21/13 A2993 RMK A01 T02090131  RH  061%=      5-min Rain = 0
KPD2 240802Z 17004KT 21/13 A2992 RMK A01 T02080129  RH  060%=      5-min Rain = 0
KPD2 240803Z 15005KT 21/13 A2992 RMK A01 T02080129  RH  061%=      5-min Rain = 0
KPD2 240804Z 15002KT 21/13 A2992 RMK A01 T02070129  RH  061%=      5-min Rain = 0
KPD2 240805Z 14003KT 21/13 A2992 RMK A01 T02070129  RH  061%=      5-min Rain = 0
KPD2 240806Z 17004KT 21/13 A2992 RMK A01 T02060130  RH  062%=      5-min Rain = 0
KPD2 240807Z 18002KT 21/13 A2992 RMK A01 T02050129  RH  062%=      5-min Rain = 0
KPD2 240808Z 17004KT 21/13 A2993 RMK A01 T02050129  RH  062%=      5-min Rain = 0
KPD2 240809Z 17005KT 20/13 A2993 RMK A01 T02040129  RH  062%=      5-min Rain = 0
KPD2 240810Z 16004KT 20/13 A2993 RMK A01 T02030128  RH  062%=      5-min Rain = 0
KPD2 240811Z 15004KT 20/13 A2993 RMK A01 T02030129  RH  062%=      5-min Rain = 0
KPD2 240812Z 16005KT 20/13 A2993 RMK A01 T02020129  RH  063%=      5-min Rain = 0
KPD2 240813Z 17003KT 20/13 A2993 RMK A01 T02010128  RH  063%=      5-min Rain = 0
KPD2 240814Z 19005KT 20/13 A2993 RMK A01 T02010129  RH  063%=      5-min Rain = 0
KPD2 240815Z 20004KT 20/13 A2993 RMK A01 T02000129  RH  064%=      5-min Rain = 0
KPD2 240816Z 20004KT 20/13 A2992 RMK A01 T01990129  RH  064%=      5-min Rain = 0
KPD2 240817Z 17004KT 20/13 A2992 RMK A01 T01990130  RH  064%=      5-min Rain = 0
KPD2 240818Z 15003KT 20/13 A2992 RMK A01 T01990129  RH  064%=      5-min Rain = 0
KPD2 240819Z 21002KT 20/13 A2992 RMK A01 T01990129  RH  064%=      5-min Rain = 0
KPD2 240820Z 22001KT 20/13 A2992 RMK A01 T01990130  RH  064%=      5-min Rain = 0
KPD2 240821Z 17003KT 20/13 A2992 RMK A01 T01980130  RH  065%=      5-min Rain = 0
KPD2 240822Z 17005KT 20/13 A2993 RMK A01 T01980131  RH  065%=      5-min Rain = 0
KPD2 240823Z 18003KT 20/13 A2993 RMK A01 T01970130  RH  065%=      5-min Rain = 0
KPD2 240824Z 17002KT 20/13 A2993 RMK A01 T01980130  RH  065%=      5-min Rain = 0
KPD2 240825Z 16002KT 20/13 A2993 RMK A01 T01980130  RH  065%=      5-min Rain = 0
KPD2 240826Z 15003KT 20/13 A2992 RMK A01 T01980131  RH  065%=      5-min Rain = 0
KPD2 240827Z 15005KT 20/13 A2992 RMK A01 T01980132  RH  066%=      5-min Rain = 0
KPD2 240828Z 15001KT 20/13 A2992 RMK A01 T01970132  RH  066%=      5-min Rain = 0
KPD2 240829Z 26002KT 20/13 A2993 RMK A01 T01960132  RH  066%=      5-min Rain = 0
KPD2 240830Z 24005KT 20/13 A2993 RMK A01 T01960132  RH  067%=      5-min Rain = 0
KPD2 240831Z 21005KT 20/13 A2993 RMK A01 T01950133  RH  067%=      5-min Rain = 0
KPD2 240832Z 22002KT 20/13 A2993 RMK A01 T01950132  RH  067%=      5-min Rain = 0
KPD2 240833Z 27002KT 20/13 A2993 RMK A01 T01950132  RH  067%=      5-min Rain = 0
KPD2 240834Z 24003KT 20/13 A2993 RMK A01 T01950132  RH  067%=      5-min Rain = 0
KPD2 240835Z 26002KT 20/13 A2993 RMK A01 T01950133  RH  067%=      5-min Rain = 0
KPD2 240836Z 23002KT 19/13 A2993 RMK A01 T01940133  RH  068%=      5-min Rain = 0
KPD2 240837Z 18001KT 20/13 A2994 RMK A01 T01950134  RH  068%=      5-min Rain = 0
KPD2 240838Z 23002KT 19/14 A2994 RMK A01 T01940135  RH  069%=      5-min Rain = 0
KPD2 240839Z 20003KT 19/14 A2994 RMK A01 T01930135  RH  069%=      5-min Rain = 0
KPD2 240840Z 22002KT 19/14 A2994 RMK A01 T01930135  RH  069%=      5-min Rain = 0
KPD2 240841Z 23004KT 19/14 A2994 RMK A01 T01930136  RH  070%=      5-min Rain = 0
KPD2 240842Z 25004KT 19/14 A2994 RMK A01 T01920137  RH  070%=      5-min Rain = 0
KPD2 240843Z 26002KT 19/14 A2994 RMK A01 T01920138  RH  071%=      5-min Rain = 0
KPD2 240844Z 26001KT 19/14 A2994 RMK A01 T01920138  RH  071%=      5-min Rain = 0
KPD2 240845Z 27001KT 19/14 A2994 RMK A01 T01920139  RH  071%=      5-min Rain = 0
KPD2 240846Z 00000KT 19/14 A2994 RMK A01 T01910138  RH  072%=      5-min Rain = 0
KPD2 240847Z 26000KT 19/14 A2994 RMK A01 T01900138  RH  072%=      5-min Rain = 0
KPD2 240848Z 25000KT 19/14 A2994 RMK A01 T01900139  RH  072%=      5-min Rain = 0
KPD2 240849Z 23003KT 19/14 A2994 RMK A01 T01900139  RH  072%=      5-min Rain = 0
KPD2 240850Z 22001KT 19/14 A2993 RMK A01 T01900140  RH  073%=      5-min Rain = 0
KPD2 240851Z 12001KT 19/14 A2993 RMK A01 T01900141  RH  073%=      5-min Rain = 0
KPD2 240852Z 25001KT 19/14 A2993 RMK A01 T01900140  RH  073%=      5-min Rain = 0
KPD2 240853Z 16002KT 19/14 A2993 RMK A01 T01910141  RH  073%=      5-min Rain = 0
KPD2 240854Z 15001KT 19/14 A2994 RMK A01 T01910142  RH  073%=      5-min Rain = 0
KPD2 240855Z 16001KT 19/14 A2994 RMK A01 T01900142  RH  073%=      5-min Rain = 0
KPD2 240856Z 15001KT 19/14 A2994 RMK A01 T01900142  RH  073%=      5-min Rain = 0
KPD2 240857Z 00000KT 19/14 A2994 RMK A01 T01900143  RH  074%=      5-min Rain = 0
KPD2 240858Z 00000KT 19/14 A2994 RMK A01 T01890142  RH  074%=      5-min Rain = 0
KPD2 240859Z 00000KT 19/14 A2994 RMK A01 T01890142  RH  074%=      5-min Rain = 0
KPD2 240900Z 00000KT 19/14 A2994 RMK A01 T01880141  RH  074%=      5-min Rain = 0
KPD2 240901Z 00002KT 19/14 A2993 RMK A01 T01870141  RH  074%=      5-min Rain = 0
KPD2 240902Z 00003KT 19/14 A2993 RMK A01 T01870141  RH  075%=      5-min Rain = 0
KPD2 240903Z 35002KT 19/14 A2993 RMK A01 T01860141  RH  075%=      5-min Rain = 0
KPD2 240904Z 26002KT 19/14 A2993 RMK A01 T01860142  RH  075%=      5-min Rain = 0
KPD2 240905Z 26002KT 19/14 A2993 RMK A01 T01860142  RH  075%=      5-min Rain = 0
KPD2 240906Z 28001KT 19/14 A2993 RMK A01 T01860142  RH  076%=      5-min Rain = 0
KPD2 240907Z 32001KT 19/14 A2993 RMK A01 T01850141  RH  076%=      5-min Rain = 0
KPD2 240908Z 32002KT 19/14 A2993 RMK A01 T01850141  RH  076%=      5-min Rain = 0
KPD2 240909Z 32002KT 18/14 A2993 RMK A01 T01840140  RH  076%=      5-min Rain = 0
KPD2 240910Z 31003KT 18/14 A2993 RMK A01 T01840141  RH  076%=      5-min Rain = 0
KPD2 240911Z 32004KT 18/14 A2993 RMK A01 T01830141  RH  076%=      5-min Rain = 0
KPD2 240912Z 34004KT 18/14 A2992 RMK A01 T01820141  RH  077%=      5-min Rain = 0
KPD2 240913Z 34004KT 18/14 A2992 RMK A01 T01820141  RH  077%=      5-min Rain = 0
KPD2 240914Z 34005KT 18/14 A2992 RMK A01 T01810141  RH  077%=      5-min Rain = 0
KPD2 240915Z 34005KT 18/14 A2992 RMK A01 T01800140  RH  077%=      5-min Rain = 0
KPD2 240916Z 34004KT 18/14 A2992 RMK A01 T01800139  RH  077%=      5-min Rain = 0
KPD2 240917Z 33003KT 18/14 A2992 RMK A01 T01790138  RH  077%=      5-min Rain = 0
KPD2 240918Z 32003KT 18/14 A2992 RMK A01 T01800139  RH  077%=      5-min Rain = 0
KPD2 240919Z 32003KT 18/14 A2992 RMK A01 T01800138  RH  077%=      5-min Rain = 0
KPD2 240920Z 30002KT 18/14 A2992 RMK A01 T01800138  RH  077%=      5-min Rain = 0
KPD2 240921Z 29001KT 18/14 A2992 RMK A01 T01800139  RH  077%=      5-min Rain = 0
KPD2 240922Z 27002KT 18/14 A2993 RMK A01 T01790139  RH  077%=      5-min Rain = 0
KPD2 240923Z 29002KT 18/14 A2993 RMK A01 T01790140  RH  078%=      5-min Rain = 0
KPD2 240924Z 30003KT 18/14 A2993 RMK A01 T01790140  RH  078%=      5-min Rain = 0
KPD2 240925Z 31004KT 18/14 A2993 RMK A01 T01780139  RH  078%=      5-min Rain = 0
KPD2 240926Z 32004KT 18/14 A2993 RMK A01 T01780140  RH  078%=      5-min Rain = 0
KPD2 240927Z 31003KT 18/14 A2993 RMK A01 T01770140  RH  079%=      5-min Rain = 0
KPD2 240928Z 30002KT 18/14 A2993 RMK A01 T01770140  RH  079%=      5-min Rain = 0
KPD2 240929Z 27002KT 18/14 A2993 RMK A01 T01760139  RH  079%=      5-min Rain = 0
KPD2 240930Z 27003KT 18/14 A2994 RMK A01 T01760139  RH  079%=      5-min Rain = 0
KPD2 240931Z 27003KT 18/14 A2994 RMK A01 T01760140  RH  079%=      5-min Rain = 0
KPD2 240932Z 29002KT 18/14 A2994 RMK A01 T01750139  RH  079%=      5-min Rain = 0
KPD2 240933Z 28001KT 18/14 A2994 RMK A01 T01750139  RH  080%=      5-min Rain = 0
KPD2 240934Z 31000KT 17/14 A2995 RMK A01 T01740139  RH  080%=      5-min Rain = 0
KPD2 240935Z 00000KT 17/14 A2995 RMK A01 T01740139  RH  080%=      5-min Rain = 0
KPD2 240936Z 00000KT 17/14 A2995 RMK A01 T01740139  RH  080%=      5-min Rain = 0
KPD2 240937Z 32000KT 17/14 A2995 RMK A01 T01730139  RH  080%=      5-min Rain = 0
KPD2 240938Z 32001KT 17/14 A2995 RMK A01 T01730139  RH  080%=      5-min Rain = 0
KPD2 240939Z 30002KT 17/14 A2995 RMK A01 T01720138  RH  080%=      5-min Rain = 0
KPD2 240940Z 31002KT 17/14 A2995 RMK A01 T01720139  RH  081%=      5-min Rain = 0
KPD2 240941Z 31003KT 17/14 A2995 RMK A01 T01720138  RH  081%=      5-min Rain = 0
KPD2 240942Z 31003KT 17/14 A2994 RMK A01 T01710138  RH  081%=      5-min Rain = 0
KPD2 240943Z 30003KT 17/14 A2994 RMK A01 T01710138  RH  081%=      5-min Rain = 0
KPD2 240944Z 29003KT 17/14 A2995 RMK A01 T01710139  RH  081%=      5-min Rain = 0
KPD2 240945Z 28003KT 17/14 A2995 RMK A01 T01710139  RH  081%=      5-min Rain = 0
KPD2 240946Z 28002KT 17/14 A2995 RMK A01 T01710139  RH  081%=      5-min Rain = 0
KPD2 240947Z 28002KT 17/14 A2995 RMK A01 T01710139  RH  081%=      5-min Rain = 0
KPD2 240948Z 29002KT 17/14 A2996 RMK A01 T01710139  RH  081%=      5-min Rain = 0
KPD2 240949Z 33002KT 17/14 A2996 RMK A01 T01710139  RH  081%=      5-min Rain = 0
KPD2 240950Z 35001KT 17/14 A2996 RMK A01 T01710140  RH  081%=      5-min Rain = 0
KPD2 240951Z 01001KT 17/14 A2997 RMK A01 T01710139  RH  082%=      5-min Rain = 0
KPD2 240952Z 06002KT 17/14 A2997 RMK A01 T01710139  RH  082%=      5-min Rain = 0
KPD2 240953Z 07002KT 17/14 A2997 RMK A01 T01710139  RH  082%=      5-min Rain = 0
KPD2 240954Z 06002KT 17/14 A2997 RMK A01 T01710139  RH  081%=      5-min Rain = 0
KPD2 240955Z 08003KT 17/14 A2997 RMK A01 T01710138  RH  081%=      5-min Rain = 0
KPD2 240956Z 06005KT 17/14 A2997 RMK A01 T01710139  RH  081%=      5-min Rain = 0
KPD2 240957Z 05004KT 17/14 A2996 RMK A01 T01710138  RH  081%=      5-min Rain = 0
KPD2 240958Z 05004KT 17/14 A2996 RMK A01 T01710137  RH  081%=      5-min Rain = 0
KPD2 240959Z 03004KT 17/14 A2997 RMK A01 T01710138  RH  081%=      5-min Rain = 0
KPD2 241000Z 01004KT 17/14 A2997 RMK A01 T01710137  RH  081%=      5-min Rain = 0
KPD2 241001Z 01004KT 17/14 A2997 RMK A01 T01710137  RH  081%=      5-min Rain = 0
KPD2 241002Z 02007KT 17/14 A2997 RMK A01 T01700137  RH  081%=      5-min Rain = 0
KPD2 241003Z 02008KT 17/14 A2996 RMK A01 T01700136  RH  081%=      5-min Rain = 0
KPD2 241004Z 02009KT 17/13 A2996 RMK A01 T01680134  RH  080%=      5-min Rain = 0
KPD2 241005Z 02007KT 17/13 A2996 RMK A01 T01660133  RH  080%=      5-min Rain = 0
KPD2 241006Z 03002KT 17/13 A2997 RMK A01 T01650133  RH  081%=      5-min Rain = 0
KPD2 241007Z 07004KT 16/13 A2997 RMK A01 T01640133  RH  082%=      5-min Rain = 0
KPD2 241008Z 07004KT 16/13 A2997 RMK A01 T01630133  RH  082%=      5-min Rain = 0
KPD2 241009Z 08002KT 16/13 A2997 RMK A01 T01640134  RH  083%=      5-min Rain = 0
KPD2 241010Z 11002KT 16/14 A2997 RMK A01 T01640135  RH  083%=      5-min Rain = 0
KPD2 241011Z 13001KT 16/14 A2997 RMK A01 T01640135  RH  083%=      5-min Rain = 0
KPD2 241012Z 27001KT 17/14 A2998 RMK A01 T01650136  RH  083%=      5-min Rain = 0
KPD2 241013Z 32004KT 17/14 A2998 RMK A01 T01650135  RH  082%=      5-min Rain = 0
KPD2 241014Z 36005KT 16/13 A2998 RMK A01 T01640132  RH  081%=      5-min Rain = 0
KPD2 241015Z 35004KT 16/13 A2998 RMK A01 T01630131  RH  082%=      5-min Rain = 0
KPD2 241016Z 35002KT 16/13 A2998 RMK A01 T01610130  RH  082%=      5-min Rain = 0
KPD2 241017Z 06001KT 16/13 A2998 RMK A01 T01600130  RH  083%=      5-min Rain = 0
KPD2 241018Z 15001KT 16/13 A2997 RMK A01 T01590131  RH  083%=      5-min Rain = 0
KPD2 241019Z 25001KT 16/13 A2997 RMK A01 T01590132  RH  084%=      5-min Rain = 0
KPD2 241020Z 26002KT 16/13 A2997 RMK A01 T01590132  RH  084%=      5-min Rain = 0
KPD2 241021Z 27002KT 16/13 A2997 RMK A01 T01590133  RH  084%=      5-min Rain = 0
KPD2 241022Z 32006KT 16/13 A2997 RMK A01 T01590132  RH  084%=      5-min Rain = 0
KPD2 241023Z 34005KT 16/13 A2997 RMK A01 T01590130  RH  083%=      5-min Rain = 0
KPD2 241024Z 36001KT 16/13 A2997 RMK A01 T01570129  RH  083%=      5-min Rain = 0
KPD2 241025Z 08003KT 16/13 A2997 RMK A01 T01560129  RH  084%=      5-min Rain = 0
KPD2 241026Z 09003KT 16/13 A2997 RMK A01 T01560130  RH  084%=      5-min Rain = 0
KPD2 241027Z 12002KT 16/13 A2998 RMK A01 T01560130  RH  085%=      5-min Rain = 0
KPD2 241028Z 11005KT 16/13 A2998 RMK A01 T01550130  RH  085%=      5-min Rain = 0
KPD2 241029Z 12003KT 16/13 A2998 RMK A01 T01560130  RH  085%=      5-min Rain = 0
KPD2 241030Z 12001KT 16/13 A2998 RMK A01 T01550130  RH  085%=      5-min Rain = 0
KPD2 241031Z 09001KT 16/13 A2998 RMK A01 T01550130  RH  085%=      5-min Rain = 0
KPD2 241032Z 07001KT 16/13 A2998 RMK A01 T01550130  RH  085%=      5-min Rain = 0
KPD2 241033Z 06001KT 16/13 A2998 RMK A01 T01550130  RH  085%=      5-min Rain = 0
KPD2 241034Z 04001KT 16/13 A2998 RMK A01 T01550131  RH  085%=      5-min Rain = 0
KPD2 241035Z 04000KT 16/13 A2998 RMK A01 T01550131  RH  086%=      5-min Rain = 0
KPD2 241036Z 01005KT 16/13 A2998 RMK A01 T01550131  RH  086%=      5-min Rain = 0
KPD2 241037Z 01006KT 15/13 A2998 RMK A01 T01540129  RH  085%=      5-min Rain = 0
KPD2 241038Z 06004KT 15/13 A2998 RMK A01 T01530129  RH  085%=      5-min Rain = 0
KPD2 241039Z 10002KT 15/13 A2998 RMK A01 T01530129  RH  085%=      5-min Rain = 0
KPD2 241040Z 09003KT 15/13 A2998 RMK A01 T01530129  RH  086%=      5-min Rain = 0
KPD2 241041Z 09002KT 15/13 A2998 RMK A01 T01520129  RH  086%=      5-min Rain = 0
KPD2 241042Z 08002KT 15/13 A2998 RMK A01 T01530130  RH  086%=      5-min Rain = 0
KPD2 241043Z 32001KT 15/13 A2998 RMK A01 T01530130  RH  086%=      5-min Rain = 0
KPD2 241044Z 33002KT 15/13 A2998 RMK A01 T01530130  RH  086%=      5-min Rain = 0
KPD2 241045Z 35004KT 15/13 A2998 RMK A01 T01530129  RH  086%=      5-min Rain = 0
KPD2 241046Z 00005KT 15/13 A2998 RMK A01 T01540129  RH  085%=      5-min Rain = 0
KPD2 241047Z 03004KT 15/13 A2998 RMK A01 T01530128  RH  085%=      5-min Rain = 0
KPD2 241048Z 03003KT 15/13 A2998 RMK A01 T01520128  RH  085%=      5-min Rain = 0
KPD2 241049Z 34001KT 15/13 A2998 RMK A01 T01510128  RH  086%=      5-min Rain = 0
KPD2 241050Z 18001KT 15/13 A2998 RMK A01 T01510128  RH  086%=      5-min Rain = 0
KPD2 241051Z 21001KT 15/13 A2998 RMK A01 T01510129  RH  086%=      5-min Rain = 0
KPD2 241052Z 08002KT 15/13 A2998 RMK A01 T01510129  RH  086%=      5-min Rain = 0
KPD2 241053Z 05003KT 15/13 A2998 RMK A01 T01510128  RH  086%=      5-min Rain = 0
KPD2 241054Z 06003KT 15/13 A2998 RMK A01 T01510127  RH  086%=      5-min Rain = 0
KPD2 241055Z 08003KT 15/13 A2998 RMK A01 T01500127  RH  086%=      5-min Rain = 0
KPD2 241056Z 06002KT 15/13 A2999 RMK A01 T01500127  RH  086%=      5-min Rain = 0
KPD2 241057Z 07001KT 15/13 A2999 RMK A01 T01500127  RH  086%=      5-min Rain = 0
KPD2 241058Z 06002KT 15/13 A2999 RMK A01 T01500128  RH  087%=      5-min Rain = 0
KPD2 241059Z 06003KT 15/13 A2999 RMK A01 T01500128  RH  087%=      5-min Rain = 0
KPD2 241100Z 07001KT 15/13 A2999 RMK A01 T01500127  RH  086%=      5-min Rain = 0
KPD2 241101Z 03001KT 15/13 A2998 RMK A01 T01500127  RH  086%=      5-min Rain = 0
KPD2 241102Z 02002KT 15/13 A2998 RMK A01 T01500127  RH  086%=      5-min Rain = 0
KPD2 241103Z 00002KT 15/13 A2998 RMK A01 T01490127  RH  086%=      5-min Rain = 0
KPD2 241104Z 01004KT 15/13 A2998 RMK A01 T01490126  RH  086%=      5-min Rain = 0
KPD2 241105Z 02002KT 15/13 A2998 RMK A01 T01490127  RH  086%=      5-min Rain = 0
KPD2 241106Z 02002KT 15/13 A2998 RMK A01 T01480126  RH  087%=      5-min Rain = 0
KPD2 241107Z 36004KT 15/13 A2998 RMK A01 T01480126  RH  087%=      5-min Rain = 0
KPD2 241108Z 35003KT 15/13 A2998 RMK A01 T01470126  RH  087%=      5-min Rain = 0
KPD2 241109Z 00006KT 15/13 A2998 RMK A01 T01470125  RH  087%=      5-min Rain = 0
KPD2 241110Z 00004KT 15/13 A2998 RMK A01 T01470125  RH  087%=      5-min Rain = 0
KPD2 241111Z 00003KT 15/13 A2998 RMK A01 T01460126  RH  087%=      5-min Rain = 0
KPD2 241112Z 01004KT 15/13 A2998 RMK A01 T01460125  RH  087%=      5-min Rain = 0
KPD2 241113Z 02006KT 15/13 A2998 RMK A01 T01460125  RH  087%=      5-min Rain = 0
KPD2 241114Z 03005KT 15/12 A2998 RMK A01 T01450124  RH  087%=      5-min Rain = 0
KPD2 241115Z 01003KT 15/12 A2999 RMK A01 T01450124  RH  087%=      5-min Rain = 0
KPD2 241116Z 31003KT 14/12 A2999 RMK A01 T01440124  RH  088%=      5-min Rain = 0
KPD2 241117Z 31003KT 14/13 A2999 RMK A01 T01440125  RH  088%=      5-min Rain = 0
KPD2 241118Z 35003KT 14/13 A2998 RMK A01 T01440125  RH  088%=      5-min Rain = 0
KPD2 241119Z 01004KT 14/13 A2998 RMK A01 T01440125  RH  088%=      5-min Rain = 0
KPD2 241120Z 00003KT 14/13 A2998 RMK A01 T01440125  RH  088%=      5-min Rain = 0
KPD2 241121Z 34003KT 14/13 A2998 RMK A01 T01440126  RH  089%=      5-min Rain = 0
KPD2 241122Z 36005KT 14/13 A2998 RMK A01 T01440126  RH  089%=      5-min Rain = 0
KPD2 241123Z 00006KT 14/13 A2998 RMK A01 T01440125  RH  089%=      5-min Rain = 0
KPD2 241124Z 00007KT 14/13 A2998 RMK A01 T01440125  RH  089%=      5-min Rain = 0
KPD2 241125Z 00005KT 14/13 A2997 RMK A01 T01440125  RH  089%=      5-min Rain = 0
KPD2 241126Z 01005KT 14/12 A2997 RMK A01 T01430124  RH  089%=      5-min Rain = 0
KPD2 241127Z 33003KT 14/12 A2997 RMK A01 T01430124  RH  089%=      5-min Rain = 0
KPD2 241128Z 34004KT 14/12 A2998 RMK A01 T01430124  RH  089%=      5-min Rain = 0
KPD2 241129Z 33004KT 14/13 A2998 RMK A01 T01420125  RH  089%=      5-min Rain = 0
KPD2 241130Z 33004KT 14/13 A2998 RMK A01 T01430125  RH  089%=      5-min Rain = 0
KPD2 241131Z 34004KT 14/13 A2998 RMK A01 T01430125  RH  089%=      5-min Rain = 0
KPD2 241132Z 34005KT 14/12 A2998 RMK A01 T01420124  RH  089%=      5-min Rain = 0
KPD2 241133Z 00005KT 14/13 A2998 RMK A01 T01420125  RH  089%=      5-min Rain = 0
KPD2 241134Z 02004KT 14/12 A2998 RMK A01 T01420124  RH  089%=      5-min Rain = 0
KPD2 241135Z 01004KT 14/13 A2998 RMK A01 T01420125  RH  089%=      5-min Rain = 0
KPD2 241136Z 31001KT 14/13 A2998 RMK A01 T01420125  RH  090%=      5-min Rain = 0
KPD2 241137Z 25000KT 14/13 A2998 RMK A01 T01420125  RH  090%=      5-min Rain = 0
KPD2 241138Z 02001KT 14/13 A2998 RMK A01 T01410125  RH  090%=      5-min Rain = 0
KPD2 241139Z 34002KT 14/13 A2998 RMK A01 T01420125  RH  090%=      5-min Rain = 0
KPD2 241140Z 35004KT 14/13 A2998 RMK A01 T01420125  RH  090%=      5-min Rain = 0
KPD2 241141Z 36004KT 14/13 A2998 RMK A01 T01420125  RH  090%=      5-min Rain = 0
KPD2 241142Z 32004KT 14/13 A2999 RMK A01 T01410125  RH  090%=      5-min Rain = 0
KPD2 241143Z 31003KT 14/13 A2999 RMK A01 T01410125  RH  090%=      5-min Rain = 0
KPD2 241144Z 30003KT 14/13 A2999 RMK A01 T01410125  RH  090%=      5-min Rain = 0
KPD2 241145Z 34004KT 14/13 A2999 RMK A01 T01410125  RH  090%=      5-min Rain = 0
KPD2 241146Z 35004KT 14/13 A2999 RMK A01 T01420125  RH  090%=      5-min Rain = 0
KPD2 241147Z 35003KT 14/13 A2999 RMK A01 T01420125  RH  090%=      5-min Rain = 0
KPD2 241148Z 36003KT 14/13 A2999 RMK A01 T01420126  RH  090%=      5-min Rain = 0
KPD2 241149Z 36003KT 14/13 A2999 RMK A01 T01420126  RH  090%=      5-min Rain = 0
KPD2 241150Z 35003KT 14/13 A2998 RMK A01 T01420126  RH  090%=      5-min Rain = 0
KPD2 241151Z 31003KT 14/13 A2998 RMK A01 T01420126  RH  090%=      5-min Rain = 0
KPD2 241152Z 29002KT 14/13 A2998 RMK A01 T01420126  RH  090%=      5-min Rain = 0
KPD2 241153Z 30003KT 14/13 A2998 RMK A01 T01420126  RH  090%=      5-min Rain = 0
KPD2 241154Z 34004KT 14/13 A2998 RMK A01 T01420126  RH  090%=      5-min Rain = 0
KPD2 241155Z 01003KT 14/13 A2998 RMK A01 T01410125  RH  090%=      5-min Rain = 0
KPD2 241156Z 01004KT 14/13 A2998 RMK A01 T01420126  RH  090%=      5-min Rain = 0
KPD2 241157Z 00002KT 14/13 A2998 RMK A01 T01410125  RH  090%=      5-min Rain = 0
KPD2 241158Z 33003KT 14/13 A2998 RMK A01 T01410125  RH  090%=      5-min Rain = 0
KPD2 241159Z 33003KT 14/13 A2998 RMK A01 T01410125  RH  090%=      5-min Rain = 0
KPD2 241200Z 34004KT 14/12 A2998 RMK A01 T01400124  RH  090%=      5-min Rain = 0
KPD2 241201Z 35004KT 14/13 A2999 RMK A01 T01410125  RH  090%=      5-min Rain = 0
KPD2 241202Z 35003KT 14/13 A2999 RMK A01 T01410125  RH  090%=      5-min Rain = 0
KPD2 241203Z 35004KT 14/13 A2998 RMK A01 T01400125  RH  090%=      5-min Rain = 0
KPD2 241204Z 34004KT 14/13 A2999 RMK A01 T01400125  RH  090%=      5-min Rain = 0
KPD2 241205Z 35004KT 14/13 A2999 RMK A01 T01400125  RH  091%=      5-min Rain = 0
KPD2 241206Z 33002KT 14/13 A2999 RMK A01 T01400125  RH  091%=      5-min Rain = 0
KPD2 241207Z 35001KT 14/13 A2999 RMK A01 T01400125  RH  091%=      5-min Rain = 0
KPD2 241208Z 35001KT 14/13 A2999 RMK A01 T01400125  RH  091%=      5-min Rain = 0
KPD2 241209Z 33003KT 14/13 A2999 RMK A01 T01410126  RH  091%=      5-min Rain = 0
KPD2 241210Z 33003KT 14/13 A2999 RMK A01 T01400125  RH  091%=      5-min Rain = 0
KPD2 241211Z 32003KT 14/13 A2999 RMK A01 T01400126  RH  091%=      5-min Rain = 0
KPD2 241212Z 31004KT 14/13 A2999 RMK A01 T01410126  RH  091%=      5-min Rain = 0
KPD2 241213Z 28002KT 14/13 A2999 RMK A01 T01410125  RH  090%=      5-min Rain = 0
KPD2 241214Z 29001KT 14/13 A2999 RMK A01 T01410126  RH  090%=      5-min Rain = 0
KPD2 241215Z 29001KT 14/13 A2999 RMK A01 T01410126  RH  091%=      5-min Rain = 0
KPD2 241216Z 25001KT 14/13 A2999 RMK A01 T01410126  RH  090%=      5-min Rain = 0
KPD2 241217Z 26001KT 14/13 A2999 RMK A01 T01420127  RH  091%=      5-min Rain = 0
KPD2 241218Z 00002KT 14/13 A2999 RMK A01 T01420127  RH  091%=      5-min Rain = 0
KPD2 241219Z 34002KT 14/13 A2999 RMK A01 T01420128  RH  091%=      5-min Rain = 0
KPD2 241220Z 35003KT 14/13 A2999 RMK A01 T01430127  RH  091%=      5-min Rain = 0
KPD2 241221Z 33002KT 14/13 A2999 RMK A01 T01430127  RH  090%=      5-min Rain = 0
KPD2 241222Z 29002KT 14/13 A2999 RMK A01 T01430127  RH  090%=      5-min Rain = 0
KPD2 241223Z 28002KT 14/13 A2999 RMK A01 T01440127  RH  090%=      5-min Rain = 0
KPD2 241224Z 34001KT 14/13 A2999 RMK A01 T01440127  RH  090%=      5-min Rain = 0
KPD2 241225Z 30002KT 14/13 A30 RMK A01 T01440127  RH  090%=      5-min Rain = 0
KPD2 241226Z 31003KT 14/13 A30 RMK A01 T01440126  RH  089%=      5-min Rain = 0
KPD2 241227Z 33004KT 14/13 A30 RMK A01 T01440127  RH  089%=      5-min Rain = 0
KPD2 241228Z 35004KT 14/13 A30 RMK A01 T01440126  RH  089%=      5-min Rain = 0
KPD2 241229Z 35004KT 14/13 A2999 RMK A01 T01440127  RH  089%=      5-min Rain = 0
KPD2 241230Z 33003KT 14/13 A2999 RMK A01 T01440128  RH  090%=      5-min Rain = 0
KPD2 241231Z 33003KT 14/13 A2999 RMK A01 T01440127  RH  089%=      5-min Rain = 0
KPD2 241232Z 33004KT 14/13 A2999 RMK A01 T01440127  RH  089%=      5-min Rain = 0
KPD2 241233Z 33006KT 15/13 A2999 RMK A01 T01450127  RH  089%=      5-min Rain = 0
KPD2 241234Z 33005KT 15/13 A2999 RMK A01 T01450126  RH  089%=      5-min Rain = 0
KPD2 241235Z 34004KT 15/13 A2999 RMK A01 T01450126  RH  089%=      5-min Rain = 0
KPD2 241236Z 32003KT 15/13 A2999 RMK A01 T01450127  RH  089%=      5-min Rain = 0
KPD2 241237Z 34002KT 15/13 A2999 RMK A01 T01450127  RH  089%=      5-min Rain = 0
KPD2 241238Z 33003KT 15/13 A2999 RMK A01 T01450127  RH  089%=      5-min Rain = 0
KPD2 241239Z 34002KT 15/13 A30 RMK A01 T01460128  RH  089%=      5-min Rain = 0
KPD2 241240Z 32002KT 15/13 A30 RMK A01 T01460128  RH  089%=      5-min Rain = 0
KPD2 241241Z 33003KT 15/13 A30 RMK A01 T01460127  RH  089%=      5-min Rain = 0
KPD2 241242Z 32003KT 15/13 A30 RMK A01 T01460127  RH  089%=      5-min Rain = 0
KPD2 241243Z 30002KT 15/13 A2999 RMK A01 T01460127  RH  088%=      5-min Rain = 0
KPD2 241244Z 30003KT 15/13 A2999 RMK A01 T01460127  RH  089%=      5-min Rain = 0
KPD2 241245Z 28003KT 15/13 A2999 RMK A01 T01460127  RH  089%=      5-min Rain = 0
KPD2 241246Z 30003KT 15/13 A2999 RMK A01 T01460128  RH  089%=      5-min Rain = 0
KPD2 241247Z 30003KT 15/13 A2999 RMK A01 T01460127  RH  088%=      5-min Rain = 0
KPD2 241248Z 30003KT 15/13 A2999 RMK A01 T01460128  RH  089%=      5-min Rain = 0
KPD2 241249Z 32002KT 15/13 A2999 RMK A01 T01470128  RH  089%=      5-min Rain = 0
KPD2 241250Z 35005KT 15/13 A2999 RMK A01 T01470129  RH  089%=      5-min Rain = 0
KPD2 241251Z 35005KT 15/13 A2999 RMK A01 T01480129  RH  089%=      5-min Rain = 0
KPD2 241252Z 35005KT 15/13 A2999 RMK A01 T01470128  RH  088%=      5-min Rain = 0
KPD2 241253Z 35005KT 15/13 A2999 RMK A01 T01480128  RH  088%=      5-min Rain = 0
KPD2 241254Z 34004KT 15/13 A2999 RMK A01 T01480128  RH  088%=      5-min Rain = 0
KPD2 241255Z 34004KT 15/13 A2999 RMK A01 T01480129  RH  088%=      5-min Rain = 0
KPD2 241256Z 34005KT 15/13 A30 RMK A01 T01480128  RH  088%=      5-min Rain = 0
KPD2 241257Z 34004KT 15/13 A2999 RMK A01 T01480128  RH  087%=      5-min Rain = 0
KPD2 241258Z 33004KT 15/13 A2999 RMK A01 T01480128  RH  088%=      5-min Rain = 0
KPD2 241259Z 32002KT 15/13 A30 RMK A01 T01490129  RH  088%=      5-min Rain = 0
KPD2 241300Z 30003KT 15/13 A30 RMK A01 T01500130  RH  088%=      5-min Rain = 0
KPD2 241301Z 28004KT 15/13 A30 RMK A01 T01500129  RH  087%=      5-min Rain = 0
KPD2 241302Z 28004KT 15/13 A30 RMK A01 T01500129  RH  087%=      5-min Rain = 0
KPD2 241303Z 29004KT 15/13 A30 RMK A01 T01510130  RH  087%=      5-min Rain = 0
KPD2 241304Z 29003KT 15/13 A30 RMK A01 T01510129  RH  087%=      5-min Rain = 0
KPD2 241305Z 30006KT 15/13 A30 RMK A01 T01520129  RH  087%=      5-min Rain = 0
KPD2 241306Z 29005KT 15/13 A30 RMK A01 T01510128  RH  086%=      5-min Rain = 0
KPD2 241307Z 31006KT 15/13 A30 RMK A01 T01510128  RH  086%=      5-min Rain = 0
KPD2 241308Z 31006KT 15/13 A2999 RMK A01 T01500128  RH  086%=      5-min Rain = 0
KPD2 241309Z 31006KT 15/13 A30 RMK A01 T01500128  RH  087%=      5-min Rain = 0
KPD2 241310Z 29005KT 15/13 A30 RMK A01 T01500128  RH  087%=      5-min Rain = 0
KPD2 241311Z 30004KT 15/13 A30 RMK A01 T01500128  RH  087%=      5-min Rain = 0
KPD2 241312Z 28003KT 15/13 A30 RMK A01 T01500128  RH  087%=      5-min Rain = 0
KPD2 241313Z 27005KT 15/13 A30 RMK A01 T01500129  RH  087%=      5-min Rain = 0
KPD2 241314Z 28004KT 15/13 A30 RMK A01 T01500129  RH  087%=      5-min Rain = 0
KPD2 241315Z 29004KT 15/13 A30 RMK A01 T01510129  RH  087%=      5-min Rain = 0
KPD2 241316Z 29003KT 15/13 A30 RMK A01 T01510129  RH  087%=      5-min Rain = 0
KPD2 241317Z 29004KT 15/13 A30 RMK A01 T01520129  RH  087%=      5-min Rain = 0
KPD2 241318Z 29004KT 15/13 A30 RMK A01 T01520129  RH  086%=      5-min Rain = 0
KPD2 241319Z 30003KT 15/13 A30 RMK A01 T01520129  RH  086%=      5-min Rain = 0
KPD2 241320Z 30003KT 15/13 A30 RMK A01 T01530130  RH  086%=      5-min Rain = 0
KPD2 241321Z 29004KT 15/13 A30 RMK A01 T01530130  RH  086%=      5-min Rain = 0
KPD2 241322Z 27003KT 15/13 A30 RMK A01 T01530130  RH  086%=      5-min Rain = 0
KPD2 241323Z 27004KT 15/13 A30 RMK A01 T01530129  RH  085%=      5-min Rain = 0
KPD2 241324Z 28004KT 15/13 A30 RMK A01 T01530129  RH  085%=      5-min Rain = 0
KPD2 241325Z 28004KT 15/13 A30 RMK A01 T01530128  RH  085%=      5-min Rain = 0
KPD2 241326Z 28004KT 15/13 A30 RMK A01 T01530128  RH  085%=      5-min Rain = 0
KPD2 241327Z 27005KT 15/13 A30 RMK A01 T01540129  RH  086%=      5-min Rain = 0
KPD2 241328Z 26003KT 15/13 A30 RMK A01 T01540129  RH  085%=      5-min Rain = 0
KPD2 241329Z 27002KT 15/13 A30 RMK A01 T01540128  RH  085%=      5-min Rain = 0
KPD2 241330Z 27005KT 15/13 A30 RMK A01 T01540129  RH  085%=      5-min Rain = 0
KPD2 241331Z 27004KT 15/13 A30 RMK A01 T01540129  RH  085%=      5-min Rain = 0
KPD2 241332Z 28003KT 15/13 A30 RMK A01 T01540129  RH  085%=      5-min Rain = 0
KPD2 241333Z 28003KT 15/13 A30 RMK A01 T01540129  RH  085%=      5-min Rain = 0
KPD2 241334Z 28004KT 15/13 A30 RMK A01 T01540129  RH  085%=      5-min Rain = 0
KPD2 241335Z 27003KT 15/13 A30 RMK A01 T01540129  RH  085%=      5-min Rain = 0
KPD2 241336Z 27003KT 15/13 A30 RMK A01 T01540130  RH  086%=      5-min Rain = 0
KPD2 241337Z 27003KT 15/13 A30 RMK A01 T01540130  RH  086%=      5-min Rain = 0
KPD2 241338Z 27004KT 16/13 A30 RMK A01 T01550131  RH  085%=      5-min Rain = 0
KPD2 241339Z 29003KT 16/13 A30 RMK A01 T01550130  RH  085%=      5-min Rain = 0
KPD2 241340Z 28003KT 16/13 A30 RMK A01 T01550130  RH  085%=      5-min Rain = 0
KPD2 241341Z 25003KT 16/13 A30 RMK A01 T01550129  RH  084%=      5-min Rain = 0
KPD2 241342Z 27003KT 16/13 A30 RMK A01 T01550130  RH  085%=      5-min Rain = 0
KPD2 241343Z 27002KT 16/13 A30 RMK A01 T01550130  RH  085%=      5-min Rain = 0
KPD2 241344Z 26002KT 16/13 A30 RMK A01 T01550131  RH  085%=      5-min Rain = 0
KPD2 241345Z 26002KT 16/13 A30 RMK A01 T01550131  RH  085%=      5-min Rain = 0
KPD2 241346Z 25001KT 16/13 A2999 RMK A01 T01550130  RH  085%=      5-min Rain = 0
KPD2 241347Z 25001KT 16/13 A2999 RMK A01 T01550130  RH  085%=      5-min Rain = 0
KPD2 241348Z 26000KT 16/13 A2999 RMK A01 T01550130  RH  085%=      5-min Rain = 0
KPD2 241349Z 24001KT 16/13 A2999 RMK A01 T01550131  RH  086%=      5-min Rain = 0
KPD2 241350Z 25002KT 16/13 A2999 RMK A01 T01560132  RH  086%=      5-min Rain = 0
KPD2 241351Z 24001KT 16/13 A30 RMK A01 T01560131  RH  085%=      5-min Rain = 0
KPD2 241352Z 23000KT 16/13 A30 RMK A01 T01550130  RH  085%=      5-min Rain = 0
KPD2 241353Z 22000KT 16/13 A2999 RMK A01 T01550130  RH  085%=      5-min Rain = 0
KPD2 241354Z 24000KT 16/13 A2999 RMK A01 T01550131  RH  085%=      5-min Rain = 0
KPD2 241355Z 24002KT 16/13 A2999 RMK A01 T01550130  RH  085%=      5-min Rain = 0
KPD2 241356Z 24001KT 16/13 A2999 RMK A01 T01550129  RH  085%=      5-min Rain = 0
KPD2 241357Z 26001KT 15/13 A2999 RMK A01 T01540129  RH  085%=      5-min Rain = 0
KPD2 241358Z 24002KT 15/13 A30 RMK A01 T01540129  RH  085%=      5-min Rain = 0
KPD2 241359Z 25002KT 15/13 A30 RMK A01 T01530129  RH  086%=      5-min Rain = 0
KPD2 241400Z 27002KT 15/13 A30 RMK A01 T01530129  RH  086%=      5-min Rain = 0
KPD2 241401Z 28002KT 15/13 A2999 RMK A01 T01530130  RH  086%=      5-min Rain = 0
KPD2 241402Z 28002KT 15/13 A2999 RMK A01 T01530131  RH  086%=      5-min Rain = 0
KPD2 241403Z 28001KT 15/13 A2999 RMK A01 T01530131  RH  086%=      5-min Rain = 0
KPD2 241404Z 26001KT 15/13 A2999 RMK A01 T01530131  RH  087%=      5-min Rain = 0
KPD2 241405Z 25002KT 15/13 A2999 RMK A01 T01530130  RH  087%=      5-min Rain = 0
KPD2 241406Z 25002KT 15/13 A2999 RMK A01 T01530131  RH  087%=      5-min Rain = 0
KPD2 241407Z 26002KT 15/13 A2999 RMK A01 T01530131  RH  087%=      5-min Rain = 0
KPD2 241408Z 26002KT 15/13 A30 RMK A01 T01530131  RH  087%=      5-min Rain = 0
KPD2 241409Z 27002KT 15/13 A30 RMK A01 T01530131  RH  087%=      5-min Rain = 0
KPD2 241410Z 28002KT 15/13 A30 RMK A01 T01530131  RH  087%=      5-min Rain = 0
KPD2 241411Z 28002KT 15/13 A30 RMK A01 T01530131  RH  087%=      5-min Rain = 0
KPD2 241412Z 28002KT 16/13 A30 RMK A01 T01550133  RH  087%=      5-min Rain = 0
KPD2 241413Z 26001KT 16/13 A30 RMK A01 T01560134  RH  087%=      5-min Rain = 0
KPD2 241414Z 28002KT 16/14 A30 RMK A01 T01580135  RH  086%=      5-min Rain = 0
KPD2 241415Z 27001KT 16/14 A30 RMK A01 T01610136  RH  085%=      5-min Rain = 0
KPD2 241416Z 26001KT 16/14 A30 RMK A01 T01630137  RH  084%=      5-min Rain = 0
KPD2 241417Z 29002KT 17/14 A30 RMK A01 T01660138  RH  084%=      5-min Rain = 0
KPD2 241418Z 28003KT 17/14 A30 RMK A01 T01680137  RH  082%=      5-min Rain = 0
KPD2 241419Z 31003KT 17/14 A30 RMK A01 T01700137  RH  081%=      5-min Rain = 0
KPD2 241420Z 28002KT 17/14 A30 RMK A01 T01700136  RH  080%=      5-min Rain = 0
KPD2 241421Z 26003KT 17/14 A30 RMK A01 T01710136  RH  080%=      5-min Rain = 0
KPD2 241422Z 27003KT 17/14 A30 RMK A01 T01720136  RH  080%=      5-min Rain = 0
KPD2 241423Z 27004KT 17/14 A30 RMK A01 T01720135  RH  079%=      5-min Rain = 0
KPD2 241424Z 27002KT 17/14 A30 RMK A01 T01730136  RH  079%=      5-min Rain = 0
KPD2 241425Z 25004KT 17/14 A30 RMK A01 T01730136  RH  078%=      5-min Rain = 0
KPD2 241426Z 25003KT 17/14 A30 RMK A01 T01740135  RH  078%=      5-min Rain = 0
KPD2 241427Z 24002KT 17/14 A30 RMK A01 T01730135  RH  078%=      5-min Rain = 0
KPD2 241428Z 26003KT 17/14 A30 RMK A01 T01730135  RH  079%=      5-min Rain = 0
KPD2 241429Z 27002KT 17/14 A30 RMK A01 T01720135  RH  079%=      5-min Rain = 0
KPD2 241430Z 25002KT 17/14 A30 RMK A01 T01730137  RH  079%=      5-min Rain = 0
KPD2 241431Z 26001KT 17/14 A3001 RMK A01 T01740137  RH  079%=      5-min Rain = 0
KPD2 241432Z 27001KT 18/14 A3001 RMK A01 T01760138  RH  078%=      5-min Rain = 0
KPD2 241433Z 25003KT 18/14 A3001 RMK A01 T01780140  RH  078%=      5-min Rain = 0
KPD2 241434Z 27003KT 18/14 A3001 RMK A01 T01790138  RH  077%=      5-min Rain = 0
KPD2 241435Z 29002KT 18/14 A3001 RMK A01 T01800137  RH  076%=      5-min Rain = 0
KPD2 241436Z 27003KT 18/14 A3001 RMK A01 T01800138  RH  076%=      5-min Rain = 0
KPD2 241437Z 27003KT 18/14 A30 RMK A01 T01790136  RH  076%=      5-min Rain = 0
KPD2 241438Z 26002KT 18/14 A30 RMK A01 T01780135  RH  076%=      5-min Rain = 0
KPD2 241439Z 26002KT 18/14 A30 RMK A01 T01770135  RH  077%=      5-min Rain = 0
KPD2 241440Z 26002KT 18/14 A30 RMK A01 T01760136  RH  077%=      5-min Rain = 0
KPD2 241441Z 29003KT 18/14 A30 RMK A01 T01760135  RH  077%=      5-min Rain = 0
KPD2 241442Z 25002KT 18/14 A30 RMK A01 T01760135  RH  077%=      5-min Rain = 0
KPD2 241443Z 27003KT 18/14 A30 RMK A01 T01770136  RH  077%=      5-min Rain = 0
KPD2 241444Z 27003KT 18/14 A30 RMK A01 T01780138  RH  077%=      5-min Rain = 0
KPD2 241445Z 26003KT 18/14 A30 RMK A01 T01800138  RH  077%=      5-min Rain = 0
KPD2 241446Z 26004KT 18/14 A30 RMK A01 T01800138  RH  076%=      5-min Rain = 0
KPD2 241447Z 25003KT 18/14 A30 RMK A01 T01810138  RH  076%=      5-min Rain = 0
KPD2 241448Z 26003KT 18/14 A30 RMK A01 T01810139  RH  076%=      5-min Rain = 0
KPD2 241449Z 30003KT 18/14 A30 RMK A01 T01830139  RH  076%=      5-min Rain = 0
KPD2 241450Z 26001KT 18/14 A30 RMK A01 T01830139  RH  075%=      5-min Rain = 0
KPD2 241451Z 27002KT 18/14 A30 RMK A01 T01840141  RH  076%=      5-min Rain = 0
KPD2 241452Z 28004KT 19/14 A30 RMK A01 T01860141  RH  075%=      5-min Rain = 0
KPD2 241453Z 29004KT 19/14 A30 RMK A01 T01860139  RH  074%=      5-min Rain = 0
KPD2 241454Z 30005KT 19/14 A30 RMK A01 T01860140  RH  074%=      5-min Rain = 0
KPD2 241455Z 28003KT 19/14 A30 RMK A01 T01860139  RH  074%=      5-min Rain = 0
KPD2 241456Z 28003KT 19/14 A30 RMK A01 T01860142  RH  075%=      5-min Rain = 0
KPD2 241457Z 25002KT 19/14 A30 RMK A01 T01870141  RH  074%=      5-min Rain = 0
KPD2 241458Z 25004KT 19/14 A30 RMK A01 T01870141  RH  074%=      5-min Rain = 0
KPD2 241459Z 25002KT 19/14 A30 RMK A01 T01880142  RH  075%=      5-min Rain = 0
KPD2 241500Z 26005KT 19/14 A30 RMK A01 T01890142  RH  074%=      5-min Rain = 0
KPD2 241501Z 27005KT 19/14 A30 RMK A01 T01900143  RH  074%=      5-min Rain = 0
KPD2 241502Z 27004KT 19/14 A30 RMK A01 T01910143  RH  074%=      5-min Rain = 0
KPD2 241503Z 28003KT 19/14 A30 RMK A01 T01920144  RH  074%=      5-min Rain = 0
KPD2 241504Z 28003KT 19/14 A30 RMK A01 T01920144  RH  073%=      5-min Rain = 0
KPD2 241505Z 29003KT 19/14 A30 RMK A01 T01930144  RH  073%=      5-min Rain = 0
KPD2 241506Z 33004KT 20/14 A30 RMK A01 T01950143  RH  072%=      5-min Rain = 0
KPD2 241507Z 27003KT 19/14 A30 RMK A01 T01940142  RH  072%=      5-min Rain = 0
KPD2 241508Z 30004KT 19/14 A30 RMK A01 T01930144  RH  073%=      5-min Rain = 0
KPD2 241509Z 29002KT 19/14 A30 RMK A01 T01940143  RH  073%=      5-min Rain = 0
KPD2 241510Z 28003KT 20/14 A30 RMK A01 T01950144  RH  072%=      5-min Rain = 0
KPD2 241511Z 26003KT 20/14 A30 RMK A01 T01950144  RH  072%=      5-min Rain = 0
KPD2 241512Z 28003KT 20/14 A30 RMK A01 T01950144  RH  072%=      5-min Rain = 0
KPD2 241513Z 27002KT 20/15 A30 RMK A01 T01960145  RH  072%=      5-min Rain = 0
KPD2 241514Z 27004KT 20/15 A30 RMK A01 T01970147  RH  073%=      5-min Rain = 0
KPD2 241515Z 24004KT 20/15 A30 RMK A01 T01970146  RH  072%=      5-min Rain = 0
KPD2 241516Z 25005KT 20/14 A30 RMK A01 T01970144  RH  071%=      5-min Rain = 0
KPD2 241517Z 26004KT 20/15 A2999 RMK A01 T01970145  RH  072%=      5-min Rain = 0
KPD2 241518Z 27005KT 20/15 A2999 RMK A01 T01980148  RH  073%=      5-min Rain = 0
KPD2 241519Z 27006KT 20/15 A2999 RMK A01 T02000148  RH  072%=      5-min Rain = 0
KPD2 241520Z 29005KT 20/15 A2999 RMK A01 T02000146  RH  071%=      5-min Rain = 0
KPD2 241521Z 27005KT 20/15 A2999 RMK A01 T02000145  RH  070%=      5-min Rain = 0
KPD2 241522Z 27004KT 20/15 A2999 RMK A01 T01990145  RH  071%=      5-min Rain = 0
KPD2 241523Z 27004KT 20/15 A2999 RMK A01 T01990146  RH  072%=      5-min Rain = 0
KPD2 241524Z 28003KT 20/15 A2999 RMK A01 T01990146  RH  072%=      5-min Rain = 0
KPD2 241525Z 26004KT 20/15 A2999 RMK A01 T01990147  RH  072%=      5-min Rain = 0
KPD2 241526Z 28005KT 20/15 A2999 RMK A01 T02000145  RH  070%=      5-min Rain = 0
KPD2 241527Z 28006KT 20/14 A2999 RMK A01 T02010143  RH  069%=      5-min Rain = 0
KPD2 241528Z 28004KT 20/14 A2999 RMK A01 T02010144  RH  069%=      5-min Rain = 0
KPD2 241529Z 27005KT 20/14 A2999 RMK A01 T02010143  RH  069%=      5-min Rain = 0
KPD2 241530Z 27005KT 20/14 A2999 RMK A01 T02010144  RH  069%=      5-min Rain = 0
KPD2 241531Z 29006KT 20/14 A2999 RMK A01 T02010143  RH  069%=      5-min Rain = 0
KPD2 241532Z 28005KT 20/14 A2999 RMK A01 T01990141  RH  069%=      5-min Rain = 0
KPD2 241533Z 25004KT 20/14 A2999 RMK A01 T01990142  RH  070%=      5-min Rain = 0
KPD2 241534Z 26005KT 20/14 A2999 RMK A01 T01990144  RH  071%=      5-min Rain = 0
KPD2 241535Z 28004KT 20/15 A2999 RMK A01 T02020145  RH  070%=      5-min Rain = 0
KPD2 241536Z 26003KT 20/14 A2999 RMK A01 T02040142  RH  068%=      5-min Rain = 0
KPD2 241537Z 24003KT 20/14 A2999 RMK A01 T02040141  RH  067%=      5-min Rain = 0
KPD2 241538Z 27004KT 20/14 A2999 RMK A01 T02040143  RH  068%=      5-min Rain = 0
KPD2 241539Z 27004KT 21/14 A2999 RMK A01 T02050143  RH  067%=      5-min Rain = 0
KPD2 241540Z 27004KT 21/14 A2999 RMK A01 T02060144  RH  068%=      5-min Rain = 0
KPD2 241541Z 28003KT 21/14 A30 RMK A01 T02060144  RH  068%=      5-min Rain = 0
KPD2 241542Z 29004KT 21/14 A30 RMK A01 T02060144  RH  068%=      5-min Rain = 0
KPD2 241543Z 26004KT 21/15 A30 RMK A01 T02060147  RH  069%=      5-min Rain = 0
KPD2 241544Z 25004KT 21/15 A30 RMK A01 T02070145  RH  068%=      5-min Rain = 0
KPD2 241545Z 28002KT 21/15 A2999 RMK A01 T02070146  RH  068%=      5-min Rain = 0
KPD2 241546Z 28003KT 21/15 A2999 RMK A01 T02070147  RH  068%=      5-min Rain = 0
KPD2 241547Z 28004KT 21/14 A30 RMK A01 T02080143  RH  066%=      5-min Rain = 0
KPD2 241548Z 28003KT 21/14 A30 RMK A01 T02070144  RH  067%=      5-min Rain = 0
KPD2 241549Z 27003KT 21/15 A30 RMK A01 T02070145  RH  067%=      5-min Rain = 0
KPD2 241550Z 29004KT 21/15 A30 RMK A01 T02080146  RH  068%=      5-min Rain = 0
KPD2 241551Z 31003KT 21/14 A30 RMK A01 T02080143  RH  066%=      5-min Rain = 0
KPD2 241552Z 30003KT 21/14 A2999 RMK A01 T02080144  RH  067%=      5-min Rain = 0
KPD2 241553Z 30003KT 21/14 A2999 RMK A01 T02070143  RH  067%=      5-min Rain = 0
KPD2 241554Z 30004KT 21/14 A2999 RMK A01 T02080143  RH  067%=      5-min Rain = 0
KPD2 241555Z 30001KT 21/14 A2999 RMK A01 T02070140  RH  065%=      5-min Rain = 0
KPD2 241556Z 30001KT 21/14 A2999 RMK A01 T02070144  RH  067%=      5-min Rain = 0
KPD2 241557Z 26002KT 21/14 A2999 RMK A01 T02080144  RH  067%=      5-min Rain = 0
KPD2 241558Z 29003KT 21/15 A2999 RMK A01 T02110147  RH  067%=      5-min Rain = 0
KPD2 241559Z 32004KT 21/15 A2999 RMK A01 T02130147  RH  066%=      5-min Rain = 0
KPD2 241600Z 34003KT 21/14 A2999 RMK A01 T02130144  RH  065%=      5-min Rain = 0
KPD2 241601Z 33002KT 21/15 A2999 RMK A01 T02140147  RH  065%=      5-min Rain = 0
KPD2 241602Z 28002KT 22/14 A2999 RMK A01 T02160143  RH  063%=      5-min Rain = 0
KPD2 241603Z 29002KT 22/14 A2999 RMK A01 T02160143  RH  063%=      5-min Rain = 0
KPD2 241604Z 31002KT 22/14 A2999 RMK A01 T02160141  RH  063%=      5-min Rain = 0
KPD2 241605Z 32002KT 22/15 A2999 RMK A01 T02150147  RH  065%=      5-min Rain = 0
KPD2 241606Z 30002KT 22/14 A2999 RMK A01 T02160144  RH  064%=      5-min Rain = 0
KPD2 241607Z 34001KT 22/14 A2999 RMK A01 T02170144  RH  063%=      5-min Rain = 0
KPD2 241608Z 30002KT 22/14 A2999 RMK A01 T02180144  RH  063%=      5-min Rain = 0
KPD2 241609Z 29003KT 22/15 A2999 RMK A01 T02190146  RH  063%=      5-min Rain = 0
KPD2 241610Z 27002KT 22/15 A2999 RMK A01 T02190146  RH  063%=      5-min Rain = 0
KPD2 241611Z 26003KT 22/15 A2999 RMK A01 T02190145  RH  063%=      5-min Rain = 0
KPD2 241612Z 26001KT 22/15 A2999 RMK A01 T02200145  RH  062%=      5-min Rain = 0
KPD2 241613Z 22000KT 22/14 A2999 RMK A01 T02180143  RH  062%=      5-min Rain = 0
KPD2 241614Z 17003KT 22/15 A2999 RMK A01 T02180145  RH  063%=      5-min Rain = 0
KPD2 241615Z 15002KT 22/15 A2999 RMK A01 T02200145  RH  063%=      5-min Rain = 0
KPD2 241616Z 13001KT 22/15 A2999 RMK A01 T02210146  RH  062%=      5-min Rain = 0
KPD2 241617Z 12001KT 22/15 A2999 RMK A01 T02230147  RH  062%=      5-min Rain = 0
KPD2 241618Z 14000KT 22/14 A2999 RMK A01 T02240144  RH  060%=      5-min Rain = 0
KPD2 241619Z 19001KT 22/14 A2999 RMK A01 T02240144  RH  060%=      5-min Rain = 0
KPD2 241620Z 16001KT 22/14 A2999 RMK A01 T02220144  RH  061%=      5-min Rain = 0
KPD2 241621Z 11001KT 22/15 A2999 RMK A01 T02220147  RH  063%=      5-min Rain = 0
KPD2 241622Z 10002KT 22/15 A2999 RMK A01 T02240149  RH  062%=      5-min Rain = 0
KPD2 241623Z 08003KT 23/15 A2999 RMK A01 T02270150  RH  062%=      5-min Rain = 0
KPD2 241624Z 08002KT 23/15 A2998 RMK A01 T02310149  RH  060%=      5-min Rain = 0
KPD2 241625Z 09001KT 23/15 A2998 RMK A01 T02330151  RH  060%=      5-min Rain = 0
KPD2 241626Z 27002KT 23/15 A2998 RMK A01 T02340148  RH  058%=      5-min Rain = 0
KPD2 241627Z 32003KT 24/15 A2998 RMK A01 T02360153  RH  059%=      5-min Rain = 0
KPD2 241628Z 33003KT 24/15 A2998 RMK A01 T02370153  RH  059%=      5-min Rain = 0
KPD2 241629Z 27004KT 24/16 A2998 RMK A01 T02380155  RH  060%=      5-min Rain = 0
KPD2 241630Z 25005KT 24/15 A2998 RMK A01 T02390152  RH  058%=      5-min Rain = 0
KPD2 241631Z 27003KT 24/15 A2998 RMK A01 T02370151  RH  059%=      5-min Rain = 0
KPD2 241632Z 32004KT 23/15 A2998 RMK A01 T02340150  RH  059%=      5-min Rain = 0
KPD2 241633Z 34003KT 23/15 A2998 RMK A01 T02320152  RH  061%=      5-min Rain = 0
KPD2 241634Z 33003KT 23/15 A2998 RMK A01 T02340153  RH  060%=      5-min Rain = 0
KPD2 241635Z 00003KT 23/15 A2998 RMK A01 T02340152  RH  060%=      5-min Rain = 0
KPD2 241636Z 33003KT 23/15 A2998 RMK A01 T02340152  RH  060%=      5-min Rain = 0
KPD2 241637Z 32005KT 24/15 A2998 RMK A01 T02350154  RH  060%=      5-min Rain = 0
KPD2 241638Z 34005KT 24/16 A2998 RMK A01 T02370155  RH  060%=      5-min Rain = 0
KPD2 241639Z 35002KT 24/15 A2998 RMK A01 T02380153  RH  059%=      5-min Rain = 0
KPD2 241640Z 36001KT 24/16 A2998 RMK A01 T02390155  RH  059%=      5-min Rain = 0
KPD2 241641Z 14002KT 24/16 A2998 RMK A01 T02410156  RH  059%=      5-min Rain = 0
KPD2 241642Z 12002KT 24/15 A2998 RMK A01 T02440154  RH  057%=      5-min Rain = 0
KPD2 241643Z 13002KT 25/16 A2998 RMK A01 T02460157  RH  057%=      5-min Rain = 0
KPD2 241644Z 13001KT 25/15 A2998 RMK A01 T02470154  RH  056%=      5-min Rain = 0
KPD2 241645Z 23001KT 25/16 A2998 RMK A01 T02460155  RH  057%=      5-min Rain = 0
KPD2 241646Z 27002KT 25/16 A2998 RMK A01 T02460156  RH  057%=      5-min Rain = 0
KPD2 241647Z 30002KT 25/16 A2998 RMK A01 T02460155  RH  057%=      5-min Rain = 0
KPD2 241648Z 30003KT 24/15 A2998 RMK A01 T02440153  RH  057%=      5-min Rain = 0
KPD2 241649Z 29001KT 24/15 A2998 RMK A01 T02430152  RH  057%=      5-min Rain = 0
KPD2 241650Z 28001KT 24/15 A2998 RMK A01 T02410152  RH  057%=      5-min Rain = 0
KPD2 241651Z 34001KT 24/15 A2998 RMK A01 T02410152  RH  057%=      5-min Rain = 0
KPD2 241652Z 15000KT 24/15 A2998 RMK A01 T02410151  RH  057%=      5-min Rain = 0
KPD2 241653Z 17001KT 24/15 A2998 RMK A01 T02410150  RH  057%=      5-min Rain = 0
KPD2 241654Z 26002KT 24/16 A2998 RMK A01 T02400155  RH  059%=      5-min Rain = 0
KPD2 241655Z 32004KT 24/16 A2998 RMK A01 T02420160  RH  060%=      5-min Rain = 0
KPD2 241656Z 32004KT 25/16 A2998 RMK A01 T02470160  RH  059%=      5-min Rain = 0
KPD2 241657Z 36002KT 25/16 A2998 RMK A01 T02500158  RH  057%=      5-min Rain = 0
KPD2 241658Z 36004KT 25/16 A2998 RMK A01 T02510158  RH  056%=      5-min Rain = 0
KPD2 241659Z 32002KT 25/16 A2998 RMK A01 T02510155  RH  055%=      5-min Rain = 0
KPD2 241700Z 35001KT 25/16 A2998 RMK A01 T02490156  RH  056%=      5-min Rain = 0
KPD2 241701Z 29003KT 25/16 A2998 RMK A01 T02490156  RH  056%=      5-min Rain = 0
KPD2 241702Z 17001KT 25/15 A2998 RMK A01 T02480152  RH  055%=      5-min Rain = 0
KPD2 241703Z 26001KT 25/16 A2998 RMK A01 T02480155  RH  056%=      5-min Rain = 0
KPD2 241704Z 26002KT 25/15 A2998 RMK A01 T02480154  RH  056%=      5-min Rain = 0
KPD2 241705Z 14001KT 25/16 A2998 RMK A01 T02480157  RH  057%=      5-min Rain = 0
KPD2 241706Z 06004KT 25/16 A2998 RMK A01 T02500156  RH  056%=      5-min Rain = 0
KPD2 241707Z 07004KT 25/16 A2998 RMK A01 T02510157  RH  056%=      5-min Rain = 0
KPD2 241708Z 08004KT 25/16 A2998 RMK A01 T02510155  RH  055%=      5-min Rain = 0
KPD2 241709Z 07003KT 25/16 A2998 RMK A01 T02510156  RH  056%=      5-min Rain = 0
KPD2 241710Z 05002KT 25/16 A2998 RMK A01 T02520157  RH  056%=      5-min Rain = 0
KPD2 241711Z 31003KT 25/16 A2998 RMK A01 T02530158  RH  056%=      5-min Rain = 0
KPD2 241712Z 31004KT 26/16 A2998 RMK A01 T02550158  RH  055%=      5-min Rain = 0
KPD2 241713Z 31004KT 26/16 A2998 RMK A01 T02550158  RH  055%=      5-min Rain = 0
KPD2 241714Z 30002KT 25/16 A2998 RMK A01 T02540156  RH  054%=      5-min Rain = 0
KPD2 241715Z 28001KT 25/16 A2998 RMK A01 T02530159  RH  056%=      5-min Rain = 0
KPD2 241716Z 29004KT 26/16 A2998 RMK A01 T02560158  RH  055%=      5-min Rain = 0
KPD2 241717Z 30004KT 26/16 A2998 RMK A01 T02570157  RH  054%=      5-min Rain = 0
KPD2 241718Z 31005KT 26/16 A2998 RMK A01 T02560157  RH  054%=      5-min Rain = 0
KPD2 241719Z 30004KT 25/16 A2998 RMK A01 T02540158  RH  055%=      5-min Rain = 0
KPD2 241720Z 30003KT 26/16 A2998 RMK A01 T02550159  RH  055%=      5-min Rain = 0
KPD2 241721Z 32003KT 26/16 A2998 RMK A01 T02570159  RH  055%=      5-min Rain = 0
KPD2 241722Z 34003KT 26/15 A2998 RMK A01 T02560154  RH  053%=      5-min Rain = 0
KPD2 241723Z 36002KT 25/15 A2998 RMK A01 T02530154  RH  054%=      5-min Rain = 0
KPD2 241724Z 33003KT 25/16 A2998 RMK A01 T02510156  RH  055%=      5-min Rain = 0
KPD2 241725Z 30003KT 25/16 A2998 RMK A01 T02530159  RH  056%=      5-min Rain = 0
KPD2 241726Z 28003KT 25/16 A2998 RMK A01 T02540157  RH  055%=      5-min Rain = 0
KPD2 241727Z 32004KT 26/16 A2998 RMK A01 T02570162  RH  056%=      5-min Rain = 0
KPD2 241728Z 32005KT 26/16 A2998 RMK A01 T02620161  RH  054%=      5-min Rain = 0
KPD2 241729Z 32003KT 26/16 A2998 RMK A01 T02610158  RH  053%=      5-min Rain = 0
KPD2 241730Z 33004KT 26/16 A2998 RMK A01 T02590157  RH  053%=      5-min Rain = 0
KPD2 241731Z 34003KT 26/16 A2998 RMK A01 T02590159  RH  054%=      5-min Rain = 0
KPD2 241732Z 33004KT 26/16 A2998 RMK A01 T02610158  RH  053%=      5-min Rain = 0
KPD2 241733Z 34004KT 26/16 A2998 RMK A01 T02590159  RH  054%=      5-min Rain = 0
KPD2 241734Z 34002KT 26/16 A2998 RMK A01 T02590158  RH  054%=      5-min Rain = 0
KPD2 241735Z 26001KT 26/16 A2997 RMK A01 T02600156  RH  053%=      5-min Rain = 0
KPD2 241736Z 23002KT 26/16 A2997 RMK A01 T02580157  RH  054%=      5-min Rain = 0
KPD2 241737Z 24002KT 26/16 A2997 RMK A01 T02570157  RH  054%=      5-min Rain = 0
KPD2 241738Z 17002KT 26/16 A2997 RMK A01 T02570158  RH  054%=      5-min Rain = 0
KPD2 241739Z 12001KT 26/16 A2997 RMK A01 T02600160  RH  054%=      5-min Rain = 0
KPD2 241740Z 17000KT 26/16 A2997 RMK A01 T02620160  RH  054%=      5-min Rain = 0
KPD2 241741Z 18002KT 26/16 A2997 RMK A01 T02630161  RH  053%=      5-min Rain = 0
KPD2 241742Z 17003KT 27/16 A2997 RMK A01 T02650160  RH  052%=      5-min Rain = 0
KPD2 241743Z 17003KT 27/16 A2997 RMK A01 T02650160  RH  052%=      5-min Rain = 0
KPD2 241744Z 21002KT 26/16 A2997 RMK A01 T02640159  RH  052%=      5-min Rain = 0
KPD2 241745Z 14002KT 26/16 A2997 RMK A01 T02640160  RH  053%=      5-min Rain = 0
KPD2 241746Z 17001KT 27/16 A2997 RMK A01 T02650158  RH  052%=      5-min Rain = 0
KPD2 241747Z 23003KT 27/16 A2997 RMK A01 T02650160  RH  052%=      5-min Rain = 0
KPD2 241748Z 27003KT 27/16 A2997 RMK A01 T02660162  RH  053%=      5-min Rain = 0
KPD2 241749Z 22002KT 27/16 A2997 RMK A01 T02660161  RH  053%=      5-min Rain = 0
KPD2 241750Z 24001KT 27/16 A2997 RMK A01 T02680164  RH  053%=      5-min Rain = 0
KPD2 241751Z 13001KT 27/16 A2997 RMK A01 T02720160  RH  050%=      5-min Rain = 0
KPD2 241752Z 14001KT 27/16 A2997 RMK A01 T02730161  RH  051%=      5-min Rain = 0
KPD2 241753Z 30002KT 27/16 A2997 RMK A01 T02740162  RH  050%=      5-min Rain = 0
KPD2 241754Z 33001KT 27/16 A2997 RMK A01 T02740161  RH  050%=      5-min Rain = 0
KPD2 241755Z 23003KT 28/16 A2997 RMK A01 T02750164  RH  051%=      5-min Rain = 0
KPD2 241756Z 19003KT 28/16 A2997 RMK A01 T02760164  RH  050%=      5-min Rain = 0
KPD2 241757Z 23006KT 28/16 A2997 RMK A01 T02760163  RH  050%=      5-min Rain = 0
KPD2 241758Z 22005KT 27/16 A2997 RMK A01 T02730163  RH  051%=      5-min Rain = 0
KPD2 241759Z 25004KT 27/16 A2996 RMK A01 T02710164  RH  052%=      5-min Rain = 0
KPD2 241800Z 30003KT 27/17 A2996 RMK A01 T02710167  RH  053%=      5-min Rain = 0
KPD2 241801Z 28003KT 28/17 A2996 RMK A01 T02760168  RH  052%=      5-min Rain = 0
KPD2 241802Z 27002KT 28/17 A2996 RMK A01 T02800165  RH  050%=      5-min Rain = 0
KPD2 241803Z 25002KT 28/16 A2996 RMK A01 T02790164  RH  050%=      5-min Rain = 0
KPD2 241804Z 04000KT 28/16 A2996 RMK A01 T02780162  RH  049%=      5-min Rain = 0
KPD2 241805Z 21001KT 28/16 A2996 RMK A01 T02770162  RH  049%=      5-min Rain = 0
KPD2 241806Z 08005KT 28/16 A2996 RMK A01 T02760164  RH  051%=      5-min Rain = 0
KPD2 241807Z 12004KT 27/16 A2996 RMK A01 T02740164  RH  051%=      5-min Rain = 0
KPD2 241808Z 14005G10KT 27/17 A2996 RMK A01 T02730167  RH  052%=      5-min Rain = 0
KPD2 241809Z 15005KT 27/17 A2996 RMK A01 T02740165  RH  051%=      5-min Rain = 0
KPD2 241810Z 15005KT 27/17 A2996 RMK A01 T02740167  RH  052%=      5-min Rain = 0
KPD2 241811Z 15004KT 27/17 A2996 RMK A01 T02730166  RH  052%=      5-min Rain = 0
KPD2 241812Z 10004KT 27/17 A2996 RMK A01 T02740171  RH  053%=      5-min Rain = 0
KPD2 241813Z 13007KT 28/17 A2996 RMK A01 T02790170  RH  052%=      5-min Rain = 0
KPD2 241814Z 13010KT 28/17 A2996 RMK A01 T02830172  RH  051%=      5-min Rain = 0
KPD2 241815Z 14008KT 29/17 A2996 RMK A01 T02860171  RH  050%=      5-min Rain = 0
KPD2 241816Z 13009KT 29/17 A2996 RMK A01 T02860172  RH  050%=      5-min Rain = 0
KPD2 241817Z 15007KT 29/17 A2995 RMK A01 T02850171  RH  050%=      5-min Rain = 0
KPD2 241818Z 13006KT 28/17 A2995 RMK A01 T02820170  RH  051%=      5-min Rain = 0
KPD2 241819Z 15006KT 28/17 A2995 RMK A01 T02780171  RH  052%=      5-min Rain = 0
KPD2 241820Z 17006KT 28/17 A2995 RMK A01 T02770168  RH  052%=      5-min Rain = 0
KPD2 241821Z 20004KT 27/17 A2995 RMK A01 T02720169  RH  053%=      5-min Rain = 0
KPD2 241822Z 15009KT 27/17 A2995 RMK A01 T02710170  RH  054%=      5-min Rain = 0
KPD2 241823Z 13006KT 27/17 A2995 RMK A01 T02700169  RH  054%=      5-min Rain = 0
KPD2 241824Z 12006KT 27/17 A2995 RMK A01 T02680170  RH  055%=      5-min Rain = 0
KPD2 241825Z 14008KT 27/17 A2995 RMK A01 T02700170  RH  054%=      5-min Rain = 0
KPD2 241826Z 15007KT 27/17 A2995 RMK A01 T02710169  RH  054%=      5-min Rain = 0
KPD2 241827Z 15005KT 27/17 A2995 RMK A01 T02700171  RH  055%=      5-min Rain = 0
KPD2 241828Z 13007KT 27/17 A2995 RMK A01 T02710172  RH  055%=      5-min Rain = 0
KPD2 241829Z 11007KT 27/17 A2995 RMK A01 T02720172  RH  054%=      5-min Rain = 0
KPD2 241830Z 13008KT 28/17 A2995 RMK A01 T02750171  RH  053%=      5-min Rain = 0
KPD2 241831Z 11006KT 28/17 A2995 RMK A01 T02760171  RH  053%=      5-min Rain = 0
KPD2 241832Z 11006KT 28/17 A2995 RMK A01 T02760174  RH  054%=      5-min Rain = 0
KPD2 241833Z 13008KT 28/18 A2995 RMK A01 T02810177  RH  053%=      5-min Rain = 0
KPD2 241834Z 12007KT 29/18 A2994 RMK A01 T02850175  RH  051%=      5-min Rain = 0
KPD2 241835Z 12004KT 29/18 A2994 RMK A01 T02870175  RH  051%=      5-min Rain = 0
KPD2 241836Z 09005KT 29/18 A2994 RMK A01 T02880175  RH  051%=      5-min Rain = 0
KPD2 241837Z 09004KT 29/18 A2994 RMK A01 T02880175  RH  050%=      5-min Rain = 0
KPD2 241838Z 11005G11KT 29/18 A2994 RMK A01 T02880175  RH  051%=      5-min Rain = 0
KPD2 241839Z 12008G13KT 29/18 A2994 RMK A01 T02880177  RH  051%=      5-min Rain = 0
KPD2 241840Z 12005KT 29/18 A2994 RMK A01 T02900179  RH  051%=      5-min Rain = 0
KPD2 241841Z 11007KT 29/18 A2994 RMK A01 T02940176  RH  049%=      5-min Rain = 0
KPD2 241842Z 11009KT 29/18 A2994 RMK A01 T02930177  RH  050%=      5-min Rain = 0
KPD2 241843Z 11007KT 29/18 A2994 RMK A01 T02940176  RH  049%=      5-min Rain = 0
KPD2 241844Z 10003KT 29/17 A2993 RMK A01 T02930174  RH  049%=      5-min Rain = 0
KPD2 241845Z 12005G13KT 29/17 A2993 RMK A01 T02920174  RH  049%=      5-min Rain = 0
KPD2 241846Z 13008KT 29/18 A2993 RMK A01 T02910177  RH  050%=      5-min Rain = 0
KPD2 241847Z 12004KT 29/18 A2993 RMK A01 T02910178  RH  051%=      5-min Rain = 0
KPD2 241848Z 11007KT 29/18 A2993 RMK A01 T02930176  RH  049%=      5-min Rain = 0
KPD2 241849Z 11006KT 29/18 A2993 RMK A01 T02940177  RH  050%=      5-min Rain = 0
KPD2 241850Z 09005KT 30/18 A2993 RMK A01 T02950176  RH  049%=      5-min Rain = 0
KPD2 241851Z 07005KT 29/18 A2993 RMK A01 T02940176  RH  049%=      5-min Rain = 0
KPD2 241852Z 06004KT 30/18 A2993 RMK A01 T02950175  RH  048%=      5-min Rain = 0
KPD2 241853Z 10005KT 30/17 A2993 RMK A01 T02950173  RH  048%=      5-min Rain = 0
KPD2 241854Z 11005KT 29/17 A2993 RMK A01 T02940173  RH  048%=      5-min Rain = 0
KPD2 241855Z 13006KT 29/18 A2993 RMK A01 T02940176  RH  049%=      5-min Rain = 0
KPD2 241856Z 09007KT 30/18 A2993 RMK A01 T02950176  RH  049%=      5-min Rain = 0
KPD2 241857Z 12008KT 29/18 A2993 RMK A01 T02940175  RH  049%=      5-min Rain = 0
KPD2 241858Z 11007KT 29/18 A2993 RMK A01 T02910175  RH  049%=      5-min Rain = 0
KPD2 241859Z 12005KT 29/17 A2993 RMK A01 T02890173  RH  050%=      5-min Rain = 0
KPD2 241900Z 13004KT 29/17 A2993 RMK A01 T02870173  RH  050%=      5-min Rain = 0
KPD2 241901Z 11005KT 29/17 A2993 RMK A01 T02850174  RH  051%=      5-min Rain = 0
KPD2 241902Z 13004KT 29/18 A2993 RMK A01 T02850176  RH  052%=      5-min Rain = 0
KPD2 241903Z 10005KT 29/17 A2993 RMK A01 T02850174  RH  051%=      5-min Rain = 0
KPD2 241904Z 14006KT 28/17 A2993 RMK A01 T02820174  RH  052%=      5-min Rain = 0
KPD2 241905Z 11004KT 28/18 A2993 RMK A01 T02800175  RH  053%=      5-min Rain = 0
KPD2 241906Z 10006KT 28/18 A2993 RMK A01 T02800176  RH  053%=      5-min Rain = 0
KPD2 241907Z 11005KT 28/18 A2993 RMK A01 T02800175  RH  053%=      5-min Rain = 0
KPD2 241908Z 13004KT 28/18 A2993 RMK A01 T02800176  RH  053%=      5-min Rain = 0
KPD2 241909Z 13009G15KT 28/18 A2993 RMK A01 T02840181  RH  054%=      5-min Rain = 0
KPD2 241910Z 13006KT 29/18 A2993 RMK A01 T02870177  RH  051%=      5-min Rain = 0
KPD2 241911Z 11007G12KT 29/18 A2993 RMK A01 T02880179  RH  052%=      5-min Rain = 0
KPD2 241912Z 09002KT 29/18 A2993 RMK A01 T02900181  RH  052%=      5-min Rain = 0
KPD2 241913Z 11008KT 29/18 A2993 RMK A01 T02930180  RH  050%=      5-min Rain = 0
KPD2 241914Z 11007KT 29/18 A2993 RMK A01 T02940180  RH  050%=      5-min Rain = 0
KPD2 241915Z 11006KT 30/18 A2992 RMK A01 T02960179  RH  050%=      5-min Rain = 0
KPD2 241916Z 11004KT 30/18 A2992 RMK A01 T02970181  RH  050%=      5-min Rain = 0
KPD2 241917Z 10006KT 30/18 A2992 RMK A01 T02980181  RH  049%=      5-min Rain = 0
KPD2 241918Z 09006G11KT 30/18 A2992 RMK A01 T02990181  RH  049%=      5-min Rain = 0
KPD2 241919Z 11007KT 30/18 A2992 RMK A01 T03000181  RH  049%=      5-min Rain = 0
KPD2 241920Z 10008KT 30/18 A2992 RMK A01 T02990182  RH  049%=      5-min Rain = 0
KPD2 241921Z 12007KT 30/18 A2992 RMK A01 T02990180  RH  049%=      5-min Rain = 0
KPD2 241922Z 14003KT 30/18 A2992 RMK A01 T02970181  RH  050%=      5-min Rain = 0
KPD2 241923Z 13004KT 30/18 A2992 RMK A01 T02970181  RH  050%=      5-min Rain = 0
KPD2 241924Z 07005KT 30/18 A2992 RMK A01 T02970180  RH  050%=      5-min Rain = 0
KPD2 241925Z 04005KT 29/18 A2992 RMK A01 T02940179  RH  050%=      5-min Rain = 0
KPD2 241926Z 08002KT 29/18 A2992 RMK A01 T02910179  RH  051%=      5-min Rain = 0
KPD2 241927Z 11007KT 29/18 A2992 RMK A01 T02910181  RH  051%=      5-min Rain = 0
KPD2 241928Z 11005G10KT 29/18 A2992 RMK A01 T02940180  RH  050%=      5-min Rain = 0
KPD2 241929Z 12007G12KT 30/18 A2992 RMK A01 T02950183  RH  051%=      5-min Rain = 0
KPD2 241930Z 09007KT 30/18 A2992 RMK A01 T02990182  RH  050%=      5-min Rain = 0
KPD2 241931Z 10008KT 30/18 A2992 RMK A01 T03000181  RH  049%=      5-min Rain = 0
KPD2 241932Z 13009KT 30/18 A2992 RMK A01 T02970180  RH  049%=      5-min Rain = 0
KPD2 241933Z 13010KT 30/18 A2992 RMK A01 T02960180  RH  050%=      5-min Rain = 0
KPD2 241934Z 12004KT 29/18 A2992 RMK A01 T02940178  RH  049%=      5-min Rain = 0
KPD2 241935Z 12008G13KT 29/18 A2992 RMK A01 T02940181  RH  051%=      5-min Rain = 0
KPD2 241936Z 13011KT 30/18 A2992 RMK A01 T02960183  RH  051%=      5-min Rain = 0
KPD2 241937Z 13010G15KT 30/18 A2992 RMK A01 T03000183  RH  049%=      5-min Rain = 0
KPD2 241938Z 12007KT 30/18 A2992 RMK A01 T03020181  RH  048%=      5-min Rain = 0
KPD2 241939Z 14007G13KT 30/18 A2992 RMK A01 T03010184  RH  049%=      5-min Rain = 0
KPD2 241940Z 13006KT 30/18 A2992 RMK A01 T03020183  RH  049%=      5-min Rain = 0
KPD2 241941Z 11009KT 30/18 A2992 RMK A01 T03020183  RH  049%=      5-min Rain = 0
KPD2 241942Z 13010KT 30/18 A2992 RMK A01 T03010182  RH  049%=      5-min Rain = 0
KPD2 241943Z 12009KT 30/18 A2992 RMK A01 T03010183  RH  049%=      5-min Rain = 0
KPD2 241944Z 13008KT 30/18 A2992 RMK A01 T03010181  RH  049%=      5-min Rain = 0
KPD2 241945Z 15011KT 30/18 A2992 RMK A01 T03010181  RH  049%=      5-min Rain = 0
KPD2 241946Z 15010KT 30/18 A2992 RMK A01 T02960180  RH  050%=      5-min Rain = 0
KPD2 241947Z 12007KT 29/18 A2992 RMK A01 T02900180  RH  051%=      5-min Rain = 0
KPD2 241948Z 11004KT 29/18 A2992 RMK A01 T02870180  RH  052%=      5-min Rain = 0
KPD2 241949Z 13003KT 29/18 A2992 RMK A01 T02850180  RH  053%=      5-min Rain = 0
KPD2 241950Z 13008KT 29/18 A2992 RMK A01 T02850182  RH  054%=      5-min Rain = 0
KPD2 241951Z 13009KT 29/18 A2991 RMK A01 T02860182  RH  053%=      5-min Rain = 0
KPD2 241952Z 13007KT 29/18 A2991 RMK A01 T02860181  RH  053%=      5-min Rain = 0
KPD2 241953Z 11009KT 29/18 A2991 RMK A01 T02850182  RH  054%=      5-min Rain = 0
KPD2 241954Z 12009KT 28/18 A2992 RMK A01 T02820181  RH  054%=      5-min Rain = 0
KPD2 241955Z 13009KT 28/18 A2992 RMK A01 T02800182  RH  055%=      5-min Rain = 0
KPD2 241956Z 13008KT 28/18 A2992 RMK A01 T02800183  RH  056%=      5-min Rain = 0
KPD2 241957Z 14008KT 28/18 A2992 RMK A01 T02780183  RH  056%=      5-min Rain = 0
KPD2 241958Z 13011KT 28/18 A2992 RMK A01 T02760183  RH  057%=      5-min Rain = 0
KPD2 241959Z 14009KT 28/18 A2992 RMK A01 T02750183  RH  057%=      5-min Rain = 0
KPD2 242000Z 14007KT 28/18 A2991 RMK A01 T02750182  RH  057%=      5-min Rain = 0
KPD2 242001Z 13007KT 27/18 A2991 RMK A01 T02720183  RH  058%=      5-min Rain = 0
KPD2 242002Z 14008KT 27/18 A2991 RMK A01 T02720183  RH  058%=      5-min Rain = 0
KPD2 242003Z 14009KT 27/18 A2991 RMK A01 T02720182  RH  058%=      5-min Rain = 0
KPD2 242004Z 13009KT 27/18 A2991 RMK A01 T02710183  RH  058%=      5-min Rain = 0
KPD2 242005Z 13010KT 27/18 A2991 RMK A01 T02700183  RH  059%=      5-min Rain = 0
KPD2 242006Z 14009KT 27/19 A2991 RMK A01 T02700185  RH  060%=      5-min Rain = 0
KPD2 242007Z 13010KT 27/19 A2991 RMK A01 T02680186  RH  061%=      5-min Rain = 0
KPD2 242008Z 13011KT 27/19 A2991 RMK A01 T02670187  RH  062%=      5-min Rain = 0
KPD2 242009Z 13009KT 27/19 A2991 RMK A01 T02660188  RH  062%=      5-min Rain = 0
KPD2 242010Z 13011KT 27/19 A299 RMK A01 T02650188  RH  063%=      5-min Rain = 0
KPD2 242011Z 14010KT 26/19 A299 RMK A01 T02630188  RH  063%=      5-min Rain = 0
KPD2 242012Z 14009KT 26/19 A299 RMK A01 T02620188  RH  064%=      5-min Rain = 0
KPD2 242013Z 14008KT 26/19 A299 RMK A01 T02600189  RH  065%=      5-min Rain = 0
KPD2 242014Z 14010KT 26/19 A299 RMK A01 T02600189  RH  065%=      5-min Rain = 0
KPD2 242015Z 13010KT 26/19 A299 RMK A01 T02590188  RH  065%=      5-min Rain = 0
KPD2 242016Z 13008KT 26/19 A299 RMK A01 T02580189  RH  065%=      5-min Rain = 0
KPD2 242017Z 14010KT 26/19 A299 RMK A01 T02580188  RH  066%=      5-min Rain = 0
KPD2 242018Z 14007KT 26/19 A299 RMK A01 T02570188  RH  066%=      5-min Rain = 0
KPD2 242019Z 15009KT 26/19 A299 RMK A01 T02570188  RH  066%=      5-min Rain = 0
KPD2 242020Z 13008KT 26/19 A299 RMK A01 T02560189  RH  066%=      5-min Rain = 0
KPD2 242021Z 13008KT 26/19 A299 RMK A01 T02550188  RH  066%=      5-min Rain = 0
KPD2 242022Z 13007KT 26/19 A299 RMK A01 T02560188  RH  066%=      5-min Rain = 0
KPD2 242023Z 14005KT 26/19 A299 RMK A01 T02550188  RH  066%=      5-min Rain = 0
KPD2 242024Z 13006KT 26/19 A299 RMK A01 T02550188  RH  067%=      5-min Rain = 0
KPD2 242025Z 13009KT 26/19 A299 RMK A01 T02550189  RH  067%=      5-min Rain = 0
KPD2 242026Z 13009KT 26/19 A299 RMK A01 T02550188  RH  067%=      5-min Rain = 0
KPD2 242027Z 13007KT 25/19 A299 RMK A01 T02540188  RH  067%=      5-min Rain = 0
KPD2 242028Z 13006KT 25/19 A299 RMK A01 T02540188  RH  067%=      5-min Rain = 0
KPD2 242029Z 13008KT 25/19 A2991 RMK A01 T02540188  RH  067%=      5-min Rain = 0
KPD2 242030Z 12010KT 26/19 A2991 RMK A01 T02550188  RH  067%=      5-min Rain = 0
KPD2 242031Z 13007KT 26/19 A2991 RMK A01 T02550188  RH  067%=      5-min Rain = 0
KPD2 242032Z 14007KT 26/19 A2991 RMK A01 T02550189  RH  067%=      5-min Rain = 0
KPD2 242033Z 13007KT 25/19 A2991 RMK A01 T02540189  RH  067%=      5-min Rain = 0
KPD2 242034Z 13010KT 25/19 A2991 RMK A01 T02530189  RH  068%=      5-min Rain = 0
KPD2 242035Z 13008KT 25/19 A2991 RMK A01 T02520189  RH  068%=      5-min Rain = 0
KPD2 242036Z 13009KT 25/19 A2991 RMK A01 T02520189  RH  068%=      5-min Rain = 0
KPD2 242037Z 13009KT 25/19 A2991 RMK A01 T02510189  RH  068%=      5-min Rain = 0
KPD2 242038Z 13008KT 25/19 A2991 RMK A01 T02500189  RH  069%=      5-min Rain = 0
KPD2 242039Z 13008KT 25/19 A2991 RMK A01 T02510189  RH  069%=      5-min Rain = 0
KPD2 242040Z 12008KT 25/19 A2991 RMK A01 T02520189  RH  068%=      5-min Rain = 0
KPD2 242041Z 13007KT 25/19 A2991 RMK A01 T02530189  RH  068%=      5-min Rain = 0
KPD2 242042Z 12006KT 25/19 A2991 RMK A01 T02540189  RH  067%=      5-min Rain = 0
KPD2 242043Z 13008KT 26/19 A299 RMK A01 T02550189  RH  067%=      5-min Rain = 0
KPD2 242044Z 12008KT 26/19 A299 RMK A01 T02550189  RH  067%=      5-min Rain = 0
KPD2 242045Z 12008KT 26/19 A299 RMK A01 T02550189  RH  067%=      5-min Rain = 0
KPD2 242046Z 12009KT 26/19 A299 RMK A01 T02550189  RH  067%=      5-min Rain = 0
KPD2 242047Z 12006KT 25/19 A299 RMK A01 T02540189  RH  067%=      5-min Rain = 0
KPD2 242048Z 13007KT 25/19 A299 RMK A01 T02540189  RH  067%=      5-min Rain = 0
KPD2 242049Z 13008KT 25/19 A299 RMK A01 T02530189  RH  068%=      5-min Rain = 0
KPD2 242050Z 13009KT 25/19 A299 RMK A01 T02510189  RH  068%=      5-min Rain = 0
KPD2 242051Z 13008KT 25/19 A299 RMK A01 T02500189  RH  069%=      5-min Rain = 0
KPD2 242052Z 13008KT 25/19 A299 RMK A01 T02490189  RH  069%=      5-min Rain = 0
KPD2 242053Z 13011KT 25/19 A299 RMK A01 T02480189  RH  069%=      5-min Rain = 0
KPD2 242054Z 13009KT 25/19 A299 RMK A01 T02480189  RH  070%=      5-min Rain = 0
KPD2 242055Z 14010KT 25/19 A299 RMK A01 T02470189  RH  070%=      5-min Rain = 0
KPD2 242056Z 13011KT 25/19 A299 RMK A01 T02470189  RH  070%=      5-min Rain = 0
KPD2 242057Z 13009G14KT 25/19 A299 RMK A01 T02460189  RH  070%=      5-min Rain = 0
KPD2 242058Z 13011KT 24/19 A299 RMK A01 T02440188  RH  071%=      5-min Rain = 0
KPD2 242059Z 13010KT 24/19 A299 RMK A01 T02430188  RH  071%=      5-min Rain = 0
KPD2 242100Z 13008KT 24/19 A299 RMK A01 T02420188  RH  072%=      5-min Rain = 0
KPD2 242101Z 14006KT 24/19 A299 RMK A01 T02420188  RH  072%=      5-min Rain = 0
KPD2 242102Z 13007KT 24/19 A299 RMK A01 T02420189  RH  072%=      5-min Rain = 0
KPD2 242103Z 13010KT 24/19 A299 RMK A01 T02420189  RH  072%=      5-min Rain = 0
KPD2 242104Z 12009KT 24/19 A299 RMK A01 T02420189  RH  072%=      5-min Rain = 0
KPD2 242105Z 11008KT 24/19 A299 RMK A01 T02420189  RH  072%=      5-min Rain = 0
KPD2 242106Z 12010KT 24/19 A299 RMK A01 T02420188  RH  072%=      5-min Rain = 0
KPD2 242107Z 12006KT 24/19 A299 RMK A01 T02400188  RH  072%=      5-min Rain = 0
KPD2 242108Z 12007KT 24/19 A299 RMK A01 T02390188  RH  073%=      5-min Rain = 0
KPD2 242109Z 11007KT 24/19 A2989 RMK A01 T02390188  RH  073%=      5-min Rain = 0
KPD2 242110Z 12008KT 24/19 A2989 RMK A01 T02390188  RH  073%=      5-min Rain = 0
KPD2 242111Z 12008KT 24/19 A2989 RMK A01 T02390188  RH  073%=      5-min Rain = 0
KPD2 242112Z 12006KT 24/19 A2989 RMK A01 T02390189  RH  073%=      5-min Rain = 0
KPD2 242113Z 11007KT 24/19 A2989 RMK A01 T02390188  RH  073%=      5-min Rain = 0
KPD2 242114Z 12007G12KT 24/19 A2989 RMK A01 T02380188  RH  074%=      5-min Rain = 0
KPD2 242115Z 12007KT 24/19 A2989 RMK A01 T02380188  RH  074%=      5-min Rain = 0
KPD2 242116Z 11007G12KT 24/19 A2989 RMK A01 T02370188  RH  074%=      5-min Rain = 0
KPD2 242117Z 12007KT 24/19 A2989 RMK A01 T02370189  RH  074%=      5-min Rain = 0
KPD2 242118Z 13007KT 24/19 A2989 RMK A01 T02370189  RH  074%=      5-min Rain = 0
KPD2 242119Z 13006KT 24/19 A299 RMK A01 T02380189  RH  074%=      5-min Rain = 0
KPD2 242120Z 12003KT 24/19 A299 RMK A01 T02370189  RH  075%=      5-min Rain = 0
KPD2 242121Z 11003KT 24/19 A299 RMK A01 T02360189  RH  075%=      5-min Rain = 0
KPD2 242122Z 12004KT 24/19 A299 RMK A01 T02360189  RH  075%=      5-min Rain = 0
KPD2 242123Z 09005KT 24/19 A299 RMK A01 T02370190  RH  075%=      5-min Rain = 0
KPD2 242124Z 10005KT 24/19 A299 RMK A01 T02370189  RH  074%=      5-min Rain = 0
KPD2 242125Z 13006KT 24/19 A299 RMK A01 T02370189  RH  074%=      5-min Rain = 0
KPD2 242126Z 13008KT 24/19 A299 RMK A01 T02380189  RH  074%=      5-min Rain = 0
KPD2 242127Z 14005KT 24/19 A299 RMK A01 T02380190  RH  074%=      5-min Rain = 0
KPD2 242128Z 13006KT 24/19 A299 RMK A01 T02380190  RH  074%=      5-min Rain = 0
KPD2 242129Z 12007KT 24/19 A299 RMK A01 T02380191  RH  075%=      5-min Rain = 0
KPD2 242130Z 13007KT 24/19 A299 RMK A01 T02380190  RH  075%=      5-min Rain = 0
KPD2 242131Z 11007KT 24/19 A299 RMK A01 T02380190  RH  075%=      5-min Rain = 0
KPD2 242132Z 12006KT 24/19 A299 RMK A01 T02380190  RH  074%=      5-min Rain = 0
KPD2 242133Z 12006KT 24/19 A2989 RMK A01 T02380189  RH  074%=      5-min Rain = 0
KPD2 242134Z 12006KT 24/19 A2989 RMK A01 T02370189  RH  074%=      5-min Rain = 0
KPD2 242135Z 13006KT 24/19 A2989 RMK A01 T02370189  RH  075%=      5-min Rain = 0
KPD2 242136Z 13007KT 24/19 A2989 RMK A01 T02370190  RH  075%=      5-min Rain = 0
KPD2 242137Z 12007KT 24/19 A2989 RMK A01 T02360189  RH  075%=      5-min Rain = 0
KPD2 242138Z 11007KT 24/19 A2989 RMK A01 T02360189  RH  075%=      5-min Rain = 0
KPD2 242139Z 11008KT 24/19 A2989 RMK A01 T02360189  RH  075%=      5-min Rain = 0
KPD2 242140Z 11008KT 24/19 A2989 RMK A01 T02350189  RH  075%=      5-min Rain = 0
KPD2 242141Z 11006KT 23/19 A2989 RMK A01 T02340189  RH  076%=      5-min Rain = 0
KPD2 242142Z 12004KT 23/19 A2989 RMK A01 T02330189  RH  076%=      5-min Rain = 0
KPD2 242143Z 12006KT 23/19 A2989 RMK A01 T02330189  RH  076%=      5-min Rain = 0
KPD2 242144Z 12005KT 23/19 A2989 RMK A01 T02330189  RH  076%=      5-min Rain = 0
KPD2 242145Z 12004KT 23/19 A2989 RMK A01 T02330190  RH  077%=      5-min Rain = 0
KPD2 242146Z 12003KT 23/19 A2989 RMK A01 T02330189  RH  077%=      5-min Rain = 0
KPD2 242147Z 11004KT 23/19 A2989 RMK A01 T02330189  RH  077%=      5-min Rain = 0
KPD2 242148Z 12003KT 23/19 A2989 RMK A01 T02330189  RH  076%=      5-min Rain = 0
KPD2 242149Z 12004KT 23/19 A2989 RMK A01 T02340190  RH  076%=      5-min Rain = 0
KPD2 242150Z 11003KT 23/19 A2989 RMK A01 T02330189  RH  076%=      5-min Rain = 0
KPD2 242151Z 13005KT 23/19 A2989 RMK A01 T02340190  RH  076%=      5-min Rain = 0
KPD2 242152Z 12005KT 23/19 A2989 RMK A01 T02330190  RH  077%=      5-min Rain = 0
KPD2 242153Z 13004KT 23/19 A299 RMK A01 T02320190  RH  077%=      5-min Rain = 0
KPD2 242154Z 15005KT 23/19 A299 RMK A01 T02320190  RH  077%=      5-min Rain = 0
KPD2 242155Z 14006KT 23/19 A2989 RMK A01 T02320190  RH  077%=      5-min Rain = 0
KPD2 242156Z 14004KT 23/19 A2989 RMK A01 T02320190  RH  077%=      5-min Rain = 0
KPD2 242157Z 13006KT 23/19 A2989 RMK A01 T02320190  RH  077%=      5-min Rain = 0
KPD2 242158Z 13006KT 23/19 A2989 RMK A01 T02320190  RH  078%=      5-min Rain = 0
KPD2 242159Z 14007KT 23/19 A2989 RMK A01 T02310190  RH  078%=      5-min Rain = 0
KPD2 242200Z 13005KT 23/19 A2989 RMK A01 T02310190  RH  078%=      5-min Rain = 0
KPD2 242201Z 15006KT 23/19 A2989 RMK A01 T02310190  RH  078%=      5-min Rain = 0
KPD2 242202Z 14009KT 23/19 A2989 RMK A01 T02300190  RH  078%=      5-min Rain = 0
KPD2 242203Z 15008KT 23/19 A2989 RMK A01 T02290189  RH  078%=      5-min Rain = 0
KPD2 242204Z 14008KT 23/19 A2989 RMK A01 T02290190  RH  079%=      5-min Rain = 0
KPD2 242205Z 14009KT 23/19 A2989 RMK A01 T02280190  RH  079%=      5-min Rain = 0
KPD2 242206Z 14009KT 23/19 A2989 RMK A01 T02280190  RH  079%=      5-min Rain = 0
KPD2 242207Z 13009KT 23/19 A2989 RMK A01 T02270190  RH  079%=      5-min Rain = 0
KPD2 242208Z 13008KT 23/19 A2989 RMK A01 T02260190  RH  080%=      5-min Rain = 0
KPD2 242209Z 12008KT 23/19 A2989 RMK A01 T02260190  RH  080%=      5-min Rain = 0
KPD2 242210Z 11008KT 23/19 A2989 RMK A01 T02260190  RH  080%=      5-min Rain = 0
KPD2 242211Z 10005KT 23/19 A2989 RMK A01 T02260190  RH  080%=      5-min Rain = 0
KPD2 242212Z 09006KT 23/19 A2988 RMK A01 T02260190  RH  080%=      5-min Rain = 0
KPD2 242213Z 12005KT 23/19 A2988 RMK A01 T02250190  RH  080%=      5-min Rain = 0
KPD2 242214Z 13005KT 23/19 A2988 RMK A01 T02250190  RH  080%=      5-min Rain = 0
KPD2 242215Z 12004KT 23/19 A2988 RMK A01 T02250190  RH  080%=      5-min Rain = 0
KPD2 242216Z 13003KT 23/19 A2988 RMK A01 T02260190  RH  080%=      5-min Rain = 0
KPD2 242217Z 14003KT 23/19 A2988 RMK A01 T02270191  RH  080%=      5-min Rain = 0
KPD2 242218Z 14005KT 23/19 A2988 RMK A01 T02290191  RH  079%=      5-min Rain = 0
KPD2 242219Z 14006KT 23/19 A2988 RMK A01 T02290191  RH  079%=      5-min Rain = 0
KPD2 242220Z 14005KT 23/19 A2988 RMK A01 T02290191  RH  079%=      5-min Rain = 0
KPD2 242221Z 15006KT 23/19 A2988 RMK A01 T02300192  RH  079%=      5-min Rain = 0
KPD2 242222Z 14005KT 23/19 A2988 RMK A01 T02310191  RH  078%=      5-min Rain = 0
KPD2 242223Z 13006KT 23/19 A2987 RMK A01 T02320192  RH  078%=      5-min Rain = 0
KPD2 242224Z 12006KT 23/19 A2987 RMK A01 T02340193  RH  078%=      5-min Rain = 0
KPD2 242225Z 12007KT 24/19 A2987 RMK A01 T02360193  RH  077%=      5-min Rain = 0
KPD2 242226Z 12005KT 24/19 A2987 RMK A01 T02380193  RH  076%=      5-min Rain = 0
KPD2 242227Z 12009KT 24/19 A2987 RMK A01 T02390193  RH  075%=      5-min Rain = 0
KPD2 242228Z 12006G11KT 24/19 A2987 RMK A01 T02400193  RH  075%=      5-min Rain = 0
KPD2 242229Z 11006KT 24/19 A2987 RMK A01 T02420194  RH  075%=      5-min Rain = 0
KPD2 242230Z 13006KT 25/20 A2987 RMK A01 T02450195  RH  074%=      5-min Rain = 0
KPD2 242231Z 14006KT 25/19 A2986 RMK A01 T02460194  RH  073%=      5-min Rain = 0
KPD2 242232Z 15006KT 25/20 A2986 RMK A01 T02460195  RH  073%=      5-min Rain = 0
KPD2 242233Z 16007KT 25/19 A2987 RMK A01 T02460194  RH  073%=      5-min Rain = 0
KPD2 242234Z 15006KT 24/19 A2987 RMK A01 T02440193  RH  073%=      5-min Rain = 0
KPD2 242235Z 14006KT 24/19 A2987 RMK A01 T02430194  RH  074%=      5-min Rain = 0
KPD2 242236Z 14004KT 24/19 A2987 RMK A01 T02430194  RH  074%=      5-min Rain = 0
KPD2 242237Z 14005KT 24/19 A2987 RMK A01 T02430194  RH  074%=      5-min Rain = 0
KPD2 242238Z 13005KT 24/19 A2987 RMK A01 T02430193  RH  074%=      5-min Rain = 0
KPD2 242239Z 12003KT 24/19 A2987 RMK A01 T02430194  RH  074%=      5-min Rain = 0
KPD2 242240Z 12003KT 24/20 A2987 RMK A01 T02440195  RH  074%=      5-min Rain = 0
KPD2 242241Z 12005KT 25/20 A2987 RMK A01 T02460197  RH  074%=      5-min Rain = 0
KPD2 242242Z 13005KT 25/20 A2987 RMK A01 T02490196  RH  072%=      5-min Rain = 0
KPD2 242243Z 14006KT 25/20 A2987 RMK A01 T02500195  RH  071%=      5-min Rain = 0
KPD2 242244Z 14007KT 25/20 A2987 RMK A01 T02490195  RH  072%=      5-min Rain = 0
KPD2 242245Z 12005KT 25/20 A2987 RMK A01 T02470195  RH  072%=      5-min Rain = 0
KPD2 242246Z 13006KT 25/20 A2987 RMK A01 T02470195  RH  073%=      5-min Rain = 0
KPD2 242247Z 13006KT 25/20 A2987 RMK A01 T02470195  RH  073%=      5-min Rain = 0
KPD2 242248Z 10005KT 25/20 A2987 RMK A01 T02470195  RH  073%=      5-min Rain = 0
KPD2 242249Z 11004KT 25/19 A2987 RMK A01 T02470194  RH  072%=      5-min Rain = 0
KPD2 242250Z 12005KT 25/19 A2987 RMK A01 T02460194  RH  073%=      5-min Rain = 0
KPD2 242251Z 13005KT 25/19 A2986 RMK A01 T02460194  RH  073%=      5-min Rain = 0
KPD2 242252Z 14006KT 25/19 A2986 RMK A01 T02450194  RH  073%=      5-min Rain = 0
KPD2 242253Z 13005KT 25/19 A2986 RMK A01 T02450194  RH  073%=      5-min Rain = 0
KPD2 242254Z 14006KT 25/20 A2986 RMK A01 T02450195  RH  074%=      5-min Rain = 0
KPD2 242255Z 14007KT 25/20 A2986 RMK A01 T02450195  RH  073%=      5-min Rain = 0
KPD2 242256Z 15007KT 25/20 A2986 RMK A01 T02450195  RH  073%=      5-min Rain = 0
KPD2 242257Z 14006KT 25/20 A2987 RMK A01 T02450195  RH  074%=      5-min Rain = 0
KPD2 242258Z 14004KT 24/20 A2986 RMK A01 T02440195  RH  074%=      5-min Rain = 0
KPD2 242259Z 15006KT 24/20 A2986 RMK A01 T02430196  RH  075%=      5-min Rain = 0
KPD2 242300Z 16007KT 24/20 A2986 RMK A01 T02430195  RH  074%=      5-min Rain = 0
KPD2 242301Z 15006KT 24/20 A2986 RMK A01 T02440196  RH  074%=      5-min Rain = 0
KPD2 242302Z 15007KT 25/20 A2986 RMK A01 T02450196  RH  074%=      5-min Rain = 0
KPD2 242303Z 16006KT 25/20 A2986 RMK A01 T02460196  RH  074%=      5-min Rain = 0
KPD2 242304Z 15008KT 25/20 A2986 RMK A01 T02450196  RH  074%=      5-min Rain = 0
KPD2 242305Z 16006KT 24/20 A2986 RMK A01 T02440196  RH  074%=      5-min Rain = 0
KPD2 242306Z 14006KT 24/20 A2986 RMK A01 T02430196  RH  075%=      5-min Rain = 0
KPD2 242307Z 14004KT 24/20 A2986 RMK A01 T02440197  RH  075%=      5-min Rain = 0
KPD2 242308Z 12005KT 25/20 A2986 RMK A01 T02450198  RH  075%=      5-min Rain = 0
KPD2 242309Z 13005KT 25/20 A2986 RMK A01 T02470197  RH  074%=      5-min Rain = 0
KPD2 242310Z 14006KT 25/20 A2986 RMK A01 T02480196  RH  073%=      5-min Rain = 0
KPD2 242311Z 13006KT 25/20 A2986 RMK A01 T02470196  RH  073%=      5-min Rain = 0
KPD2 242312Z 14006KT 25/20 A2986 RMK A01 T02460196  RH  074%=      5-min Rain = 0
KPD2 242313Z 15003KT 25/20 A2986 RMK A01 T02450196  RH  074%=      5-min Rain = 0
KPD2 242314Z 13004KT 25/20 A2986 RMK A01 T02450197  RH  075%=      5-min Rain = 0
KPD2 242315Z 12004KT 25/20 A2986 RMK A01 T02460197  RH  074%=      5-min Rain = 0
KPD2 242316Z 12006KT 25/20 A2986 RMK A01 T02460197  RH  074%=      5-min Rain = 0
KPD2 242317Z 14005KT 25/20 A2986 RMK A01 T02480196  RH  073%=      5-min Rain = 0
KPD2 242318Z 12004G9KT 25/20 A2986 RMK A01 T02480196  RH  073%=      5-min Rain = 0
KPD2 242319Z 12006KT 25/20 A2986 RMK A01 T02470197  RH  074%=      5-min Rain = 0
KPD2 242320Z 13006KT 25/20 A2986 RMK A01 T02460197  RH  074%=      5-min Rain = 0
KPD2 242321Z 13007KT 25/20 A2985 RMK A01 T02470197  RH  074%=      5-min Rain = 0
KPD2 242322Z 13008KT 25/20 A2985 RMK A01 T02470196  RH  073%=      5-min Rain = 0
KPD2 242323Z 13008KT 25/20 A2985 RMK A01 T02470196  RH  073%=      5-min Rain = 0
KPD2 242324Z 14008KT 25/20 A2985 RMK A01 T02470196  RH  073%=      5-min Rain = 0
KPD2 242325Z 15007KT 25/20 A2985 RMK A01 T02460197  RH  074%=      5-min Rain = 0
KPD2 242326Z 14006KT 25/20 A2985 RMK A01 T02470197  RH  074%=      5-min Rain = 0
KPD2 242327Z 13007KT 25/20 A2985 RMK A01 T02480198  RH  074%=      5-min Rain = 0
KPD2 242328Z 13010KT 25/20 A2985 RMK A01 T02500197  RH  072%=      5-min Rain = 0
KPD2 242329Z 13009KT 25/20 A2985 RMK A01 T02510197  RH  072%=      5-min Rain = 0
KPD2 242330Z 14008KT 25/20 A2985 RMK A01 T02510198  RH  072%=      5-min Rain = 0
KPD2 242331Z 13009KT 25/20 A2985 RMK A01 T02500197  RH  072%=      5-min Rain = 0
KPD2 242332Z 14008KT 25/20 A2985 RMK A01 T02490197  RH  073%=      5-min Rain = 0
KPD2 242333Z 15007KT 25/20 A2985 RMK A01 T02480197  RH  073%=      5-min Rain = 0
KPD2 242334Z 16008KT 25/20 A2985 RMK A01 T02470196  RH  074%=      5-min Rain = 0
KPD2 242335Z 15009KT 24/20 A2985 RMK A01 T02440196  RH  074%=      5-min Rain = 0
KPD2 242336Z 15008KT 24/20 A2985 RMK A01 T02430196  RH  075%=      5-min Rain = 0
KPD2 242337Z 14009KT 24/20 A2985 RMK A01 T02420196  RH  075%=      5-min Rain = 0
KPD2 242338Z 14008KT 24/20 A2985 RMK A01 T02410196  RH  076%=      5-min Rain = 0
KPD2 242339Z 13008KT 24/20 A2985 RMK A01 T02400196  RH  076%=      5-min Rain = 0
KPD2 242340Z 14007KT 24/20 A2985 RMK A01 T02400196  RH  076%=      5-min Rain = 0
KPD2 242341Z 14005KT 24/20 A2985 RMK A01 T02400196  RH  076%=      5-min Rain = 0
KPD2 242342Z 15006KT 24/20 A2985 RMK A01 T02400196  RH  076%=      5-min Rain = 0
KPD2 242343Z 13006KT 24/20 A2985 RMK A01 T02410196  RH  076%=      5-min Rain = 0
KPD2 242344Z 12006KT 24/20 A2985 RMK A01 T02400197  RH  076%=      5-min Rain = 0
KPD2 242345Z 13005KT 24/20 A2985 RMK A01 T02410197  RH  076%=      5-min Rain = 0
KPD2 242346Z 13006KT 24/20 A2985 RMK A01 T02420196  RH  076%=      5-min Rain = 0
KPD2 242347Z 13007KT 24/20 A2985 RMK A01 T02420196  RH  075%=      5-min Rain = 0
KPD2 242348Z 13008KT 24/20 A2985 RMK A01 T02420196  RH  076%=      5-min Rain = 0
KPD2 242349Z 13008KT 24/20 A2985 RMK A01 T02410196  RH  076%=      5-min Rain = 0
KPD2 242350Z 13011KT 24/20 A2985 RMK A01 T02400196  RH  076%=      5-min Rain = 0
KPD2 242351Z 13007KT 24/20 A2985 RMK A01 T02370195  RH  077%=      5-min Rain = 0
KPD2 242352Z 14006KT 24/19 A2985 RMK A01 T02360194  RH  078%=      5-min Rain = 0
KPD2 242353Z 14008KT 24/20 A2985 RMK A01 T02350195  RH  078%=      5-min Rain = 0
KPD2 242354Z 12005KT 23/20 A2985 RMK A01 T02340195  RH  079%=      5-min Rain = 0
KPD2 242355Z 13005KT 23/20 A2985 RMK A01 T02330195  RH  079%=      5-min Rain = 0
KPD2 242356Z 14008KT 23/20 A2985 RMK A01 T02340195  RH  078%=      5-min Rain = 0
KPD2 242357Z 14006KT 23/20 A2985 RMK A01 T02340195  RH  079%=      5-min Rain = 0
KPD2 242358Z 14004KT 23/19 A2985 RMK A01 T02330194  RH  079%=      5-min Rain = 0
KPD2 242359Z 15007KT 23/19 A2985 RMK A01 T02340194  RH  079%=      5-min Rain = 0
KPD2 250000Z 13007KT 24/20 A2985 RMK A01 T02350195  RH  078%=      5-min Rain = 0
KPD2 250001Z 13007KT 24/20 A2984 RMK A01 T02370195  RH  077%=      5-min Rain = 0
KPD2 250002Z 15008KT 24/20 A2984 RMK A01 T02380195  RH  077%=      5-min Rain = 0
KPD2 250003Z 15008KT 24/20 A2984 RMK A01 T02370195  RH  077%=      5-min Rain = 0
KPD2 250004Z 15008KT 24/20 A2984 RMK A01 T02370195  RH  077%=      5-min Rain = 0
KPD2 250005Z 13006G11KT 24/20 A2984 RMK A01 T02360195  RH  078%=      5-min Rain = 0
KPD2 250006Z 14008KT 24/20 A2984 RMK A01 T02370195  RH  078%=      5-min Rain = 0
KPD2 250007Z 13006KT 24/19 A2983 RMK A01 T02370194  RH  077%=      5-min Rain = 0
KPD2 250008Z 13008KT 24/19 A2983 RMK A01 T02370194  RH  077%=      5-min Rain = 0
KPD2 250009Z 12007KT 24/19 A2983 RMK A01 T02370193  RH  076%=      5-min Rain = 0
KPD2 250010Z 13007KT 24/19 A2983 RMK A01 T02370193  RH  076%=      5-min Rain = 0
KPD2 250011Z 13006KT 24/19 A2983 RMK A01 T02370192  RH  076%=      5-min Rain = 0
KPD2 250012Z 14005KT 24/19 A2983 RMK A01 T02380192  RH  076%=      5-min Rain = 0
KPD2 250013Z 13006KT 24/19 A2983 RMK A01 T02380193  RH  076%=      5-min Rain = 0
KPD2 250014Z 14007KT 24/19 A2983 RMK A01 T02390193  RH  075%=      5-min Rain = 0
KPD2 250015Z 14007KT 24/19 A2983 RMK A01 T02410192  RH  074%=      5-min Rain = 0
KPD2 250016Z 13008KT 24/19 A2983 RMK A01 T02410192  RH  074%=      5-min Rain = 0
KPD2 250017Z 14008KT 24/19 A2983 RMK A01 T02400192  RH  075%=      5-min Rain = 0
KPD2 250018Z 13007KT 24/19 A2983 RMK A01 T02410193  RH  074%=      5-min Rain = 0
KPD2 250019Z 13006KT 24/19 A2983 RMK A01 T02430192  RH  073%=      5-min Rain = 0
KPD2 250020Z 13008KT 24/19 A2983 RMK A01 T02430193  RH  074%=      5-min Rain = 0
KPD2 250021Z 14007KT 24/19 A2983 RMK A01 T02420193  RH  074%=      5-min Rain = 0
KPD2 250022Z 15004KT 24/19 A2983 RMK A01 T02410194  RH  075%=      5-min Rain = 0
KPD2 250023Z 13006KT 24/19 A2983 RMK A01 T02420194  RH  075%=      5-min Rain = 0
KPD2 250024Z 14008KT 24/19 A2983 RMK A01 T02420193  RH  074%=      5-min Rain = 0
KPD2 250025Z 14008KT 24/19 A2983 RMK A01 T02420193  RH  074%=      5-min Rain = 0
KPD2 250026Z 14007KT 24/19 A2983 RMK A01 T02400192  RH  074%=      5-min Rain = 0
KPD2 250027Z 11007KT 24/19 A2983 RMK A01 T02390192  RH  075%=      5-min Rain = 0
KPD2 250028Z 14007KT 24/19 A2983 RMK A01 T02400192  RH  074%=      5-min Rain = 0
KPD2 250029Z 14007KT 24/19 A2983 RMK A01 T02400192  RH  074%=      5-min Rain = 0
KPD2 250030Z 15007KT 24/19 A2983 RMK A01 T02400192  RH  074%=      5-min Rain = 0
KPD2 250031Z 15007KT 24/19 A2983 RMK A01 T02390192  RH  075%=      5-min Rain = 0
KPD2 250032Z 14005KT 24/19 A2983 RMK A01 T02390192  RH  075%=      5-min Rain = 0
KPD2 250033Z 13006KT 24/19 A2983 RMK A01 T02390192  RH  075%=      5-min Rain = 0
KPD2 250034Z 13007KT 24/19 A2983 RMK A01 T02400192  RH  074%=      5-min Rain = 0
KPD2 250035Z 13008KT 24/19 A2983 RMK A01 T02400191  RH  074%=      5-min Rain = 0
KPD2 250036Z 13010KT 24/19 A2983 RMK A01 T02400191  RH  074%=      5-min Rain = 0
KPD2 250037Z 13007KT 24/19 A2983 RMK A01 T02400191  RH  074%=      5-min Rain = 0
KPD2 250038Z 14006KT 24/19 A2983 RMK A01 T02400191  RH  074%=      5-min Rain = 0
KPD2 250039Z 14007KT 24/19 A2983 RMK A01 T02400190  RH  074%=      5-min Rain = 0
KPD2 250040Z 14008KT 24/19 A2983 RMK A01 T02390190  RH  074%=      5-min Rain = 0
KPD2 250041Z 13007KT 24/19 A2983 RMK A01 T02380190  RH  075%=      5-min Rain = 0
KPD2 250042Z 13007KT 24/19 A2983 RMK A01 T02370190  RH  075%=      5-min Rain = 0
KPD2 250043Z 13008KT 24/19 A2983 RMK A01 T02370190  RH  075%=      5-min Rain = 0
KPD2 250044Z 13006KT 24/19 A2983 RMK A01 T02370190  RH  075%=      5-min Rain = 0
KPD2 250045Z 12007KT 24/19 A2983 RMK A01 T02380189  RH  074%=      5-min Rain = 0
KPD2 250046Z 12005KT 24/19 A2983 RMK A01 T02380189  RH  074%=      5-min Rain = 0
KPD2 250047Z 13008KT 24/19 A2983 RMK A01 T02390190  RH  074%=      5-min Rain = 0
KPD2 250048Z 13008KT 24/19 A2983 RMK A01 T02390189  RH  074%=      5-min Rain = 0
KPD2 250049Z 13007KT 24/19 A2983 RMK A01 T02390189  RH  074%=      5-min Rain = 0
KPD2 250050Z 14009KT 24/19 A2983 RMK A01 T02390189  RH  074%=      5-min Rain = 0
KPD2 250051Z 13008KT 24/19 A2983 RMK A01 T02380189  RH  074%=      5-min Rain = 0
KPD2 250052Z 13010KT 24/19 A2983 RMK A01 T02370189  RH  075%=      5-min Rain = 0
KPD2 250053Z 13009KT 24/19 A2983 RMK A01 T02360188  RH  074%=      5-min Rain = 0
KPD2 250054Z 13008KT 24/19 A2983 RMK A01 T02360188  RH  075%=      5-min Rain = 0
KPD2 250055Z 13008KT 24/19 A2984 RMK A01 T02350188  RH  075%=      5-min Rain = 0
KPD2 250056Z 13010KT 24/19 A2983 RMK A01 T02350188  RH  075%=      5-min Rain = 0
KPD2 250057Z 14007KT 24/19 A2983 RMK A01 T02350188  RH  075%=      5-min Rain = 0
KPD2 250058Z 14008KT 23/19 A2983 RMK A01 T02340189  RH  076%=      5-min Rain = 0
KPD2 250059Z 14009KT 23/19 A2983 RMK A01 T02320188  RH  076%=      5-min Rain = 0
KPD2 250100Z 14008KT 23/19 A2984 RMK A01 T02310189  RH  077%=      5-min Rain = 0
KPD2 250101Z 13007KT 23/19 A2984 RMK A01 T02310189  RH  077%=      5-min Rain = 0
KPD2 250102Z 13008KT 23/19 A2984 RMK A01 T02310189  RH  077%=      5-min Rain = 0
KPD2 250103Z 13009KT 23/19 A2984 RMK A01 T02310189  RH  077%=      5-min Rain = 0
KPD2 250104Z 13010KT 23/19 A2984 RMK A01 T02310189  RH  077%=      5-min Rain = 0
KPD2 250105Z 13010KT 23/19 A2984 RMK A01 T02310189  RH  077%=      5-min Rain = 0
KPD2 250106Z 14009KT 23/19 A2985 RMK A01 T02310189  RH  077%=      5-min Rain = 0
KPD2 250107Z 14010KT 23/19 A2985 RMK A01 T02300188  RH  077%=      5-min Rain = 0
KPD2 250108Z 13009KT 23/19 A2985 RMK A01 T02290188  RH  078%=      5-min Rain = 0
KPD2 250109Z 13008KT 23/19 A2985 RMK A01 T02290189  RH  078%=      5-min Rain = 0
KPD2 250110Z 14011KT 23/19 A2985 RMK A01 T02290189  RH  078%=      5-min Rain = 0
KPD2 250111Z 14010G16KT 23/19 A2985 RMK A01 T02280188  RH  078%=      5-min Rain = 0
KPD2 250112Z 13010G15KT 23/19 A2985 RMK A01 T02280189  RH  079%=      5-min Rain = 0
KPD2 250113Z 14012KT 23/19 A2985 RMK A01 T02270188  RH  078%=      5-min Rain = 0
KPD2 250114Z 13011KT 23/19 A2985 RMK A01 T02270188  RH  079%=      5-min Rain = 0
KPD2 250115Z 14010KT 23/19 A2985 RMK A01 T02260186  RH  078%=      5-min Rain = 0
KPD2 250116Z 15012KT 23/19 A2985 RMK A01 T02260186  RH  078%=      5-min Rain = 0
KPD2 250117Z 14010KT 23/19 A2985 RMK A01 T02250185  RH  078%=      5-min Rain = 0
KPD2 250118Z 14011KT 22/19 A2985 RMK A01 T02240186  RH  079%=      5-min Rain = 0
KPD2 250119Z 13010KT 22/19 A2985 RMK A01 T02240187  RH  080%=      5-min Rain = 0
KPD2 250120Z 13008KT 22/19 A2986 RMK A01 T02240188  RH  080%=      5-min Rain = 0
KPD2 250121Z 13013KT 22/19 A2986 RMK A01 T02240185  RH  079%=      5-min Rain = 0
KPD2 250122Z 14011KT 22/18 A2986 RMK A01 T02240183  RH  077%=      5-min Rain = 0
KPD2 250123Z 14009G14KT 22/18 A2986 RMK A01 T02240182  RH  077%=      5-min Rain = 0
KPD2 250124Z 14013KT 22/18 A2986 RMK A01 T02240181  RH  077%=      5-min Rain = 0
KPD2 250125Z 14011G18KT 22/18 A2986 RMK A01 T02230181  RH  077%=      5-min Rain = 0
KPD2 250126Z 14012G17KT 22/18 A2987 RMK A01 T02220180  RH  077%=      5-min Rain = 0
KPD2 250127Z 15013G18KT 22/18 A2987 RMK A01 T02230180  RH  077%=      5-min Rain = 0
KPD2 250128Z 15014KT 22/18 A2987 RMK A01 T02220179  RH  077%=      5-min Rain = 0
KPD2 250129Z 15011G16KT 22/18 A2987 RMK A01 T02210179  RH  077%=      5-min Rain = 0
KPD2 250130Z 14010G16KT 22/18 A2986 RMK A01 T02200178  RH  077%=      5-min Rain = 0
KPD2 250131Z 14013KT 22/18 A2986 RMK A01 T02190178  RH  077%=      5-min Rain = 0
KPD2 250132Z 15010G15KT 22/18 A2986 RMK A01 T02190177  RH  077%=      5-min Rain = 0
KPD2 250133Z 15010KT 22/18 A2987 RMK A01 T02180176  RH  077%=      5-min Rain = 0
KPD2 250134Z 15012KT 22/17 A2987 RMK A01 T02170174  RH  077%=      5-min Rain = 0
KPD2 250135Z 16012KT 22/17 A2987 RMK A01 T02170171  RH  075%=      5-min Rain = 0
KPD2 250136Z 17013KT 22/17 A2987 RMK A01 T02150167  RH  074%=      5-min Rain = 0
KPD2 250137Z 16013KT 21/17 A2987 RMK A01 T02130165  RH  074%=      5-min Rain = 0
KPD2 250138Z 16013KT 21/16 A2987 RMK A01 T02120163  RH  074%=      5-min Rain = 0
KPD2 250139Z 16013KT 21/16 A2987 RMK A01 T02110162  RH  074%=      5-min Rain = 0
KPD2 250140Z 16012KT 21/16 A2987 RMK A01 T02100161  RH  074%=      5-min Rain = 0
KPD2 250141Z 16009KT 21/16 A2988 RMK A01 T02100161  RH  073%=      5-min Rain = 0
KPD2 250142Z 16009KT 21/16 A2988 RMK A01 T02100160  RH  073%=      5-min Rain = 0
KPD2 250143Z 17009KT 21/16 A2987 RMK A01 T02100156  RH  071%=      5-min Rain = 0
KPD2 250144Z 16008KT 21/16 A2987 RMK A01 T02100156  RH  071%=      5-min Rain = 0
KPD2 250145Z 15006KT 21/16 A2987 RMK A01 T02100155  RH  071%=      5-min Rain = 0
KPD2 250146Z 14011KT 21/16 A2988 RMK A01 T02100155  RH  071%=      5-min Rain = 0
KPD2 250147Z 15010KT 21/15 A2988 RMK A01 T02100153  RH  070%=      5-min Rain = 0
KPD2 250148Z 15009KT 21/15 A2988 RMK A01 T02090153  RH  070%=      5-min Rain = 0
KPD2 250149Z 15007KT 21/15 A2988 RMK A01 T02080152  RH  070%=      5-min Rain = 0
KPD2 250150Z 14005KT 21/15 A2988 RMK A01 T02080152  RH  070%=      5-min Rain = 0
KPD2 250151Z 15007KT 21/15 A2988 RMK A01 T02080152  RH  070%=      5-min Rain = 0
KPD2 250152Z 14007KT 21/15 A2987 RMK A01 T02080151  RH  070%=      5-min Rain = 0
KPD2 250153Z 15008KT 21/15 A2988 RMK A01 T02070150  RH  070%=      5-min Rain = 0
KPD2 250154Z 16008KT 21/15 A2988 RMK A01 T02070150  RH  070%=      5-min Rain = 0
KPD2 250155Z 13006KT 21/15 A2988 RMK A01 T02070149  RH  070%=      5-min Rain = 0
KPD2 250156Z 12005KT 21/15 A2988 RMK A01 T02060149  RH  070%=      5-min Rain = 0
KPD2 250157Z 15005KT 21/15 A2988 RMK A01 T02070150  RH  070%=      5-min Rain = 0
KPD2 250158Z 15005KT 21/15 A2988 RMK A01 T02070150  RH  070%=      5-min Rain = 0
KPD2 250159Z 13006KT 21/15 A2988 RMK A01 T02060149  RH  070%=      5-min Rain = 0
KPD2 250200Z 11005KT 21/15 A2988 RMK A01 T02050149  RH  070%=      5-min Rain = 0
KPD2 250201Z 12005KT 21/15 A2988 RMK A01 T02050149  RH  070%=      5-min Rain = 0
KPD2 250202Z 12007KT 21/15 A2988 RMK A01 T02050150  RH  070%=      5-min Rain = 0
KPD2 250203Z 12006KT 21/15 A2989 RMK A01 T02050149  RH  070%=      5-min Rain = 0
KPD2 250204Z 11005KT 21/15 A2989 RMK A01 T02050149  RH  070%=      5-min Rain = 0
KPD2 250205Z 11006KT 21/15 A2989 RMK A01 T02050150  RH  071%=      5-min Rain = 0
KPD2 250206Z 13005KT 20/15 A2989 RMK A01 T02040149  RH  071%=      5-min Rain = 0
KPD2 250207Z 11005KT 20/15 A2988 RMK A01 T02040150  RH  071%=      5-min Rain = 0
KPD2 250208Z 10003KT 20/15 A2988 RMK A01 T02030149  RH  071%=      5-min Rain = 0
KPD2 250209Z 10004KT 20/15 A2988 RMK A01 T02030149  RH  071%=      5-min Rain = 0
KPD2 250210Z 10006KT 20/15 A2989 RMK A01 T02020149  RH  072%=      5-min Rain = 0
KPD2 250211Z 11005KT 20/15 A2989 RMK A01 T02020149  RH  072%=      5-min Rain = 0
KPD2 250212Z 12006KT 20/15 A2989 RMK A01 T02020150  RH  072%=      5-min Rain = 0
KPD2 250213Z 12005KT 20/15 A2989 RMK A01 T02010150  RH  072%=      5-min Rain = 0
KPD2 250214Z 12005KT 20/15 A2988 RMK A01 T02010150  RH  072%=      5-min Rain = 0
KPD2 250215Z 10003KT 20/15 A2988 RMK A01 T02010150  RH  072%=      5-min Rain = 0
KPD2 250216Z 10004KT 20/15 A2988 RMK A01 T02010150  RH  073%=      5-min Rain = 0
KPD2 250217Z 09004KT 20/15 A2988 RMK A01 T02000150  RH  073%=      5-min Rain = 0
KPD2 250218Z 09003KT 20/15 A2988 RMK A01 T01990150  RH  073%=      5-min Rain = 0
KPD2 250219Z 11003KT 20/15 A2988 RMK A01 T01990150  RH  073%=      5-min Rain = 0
KPD2 250220Z 11003KT 20/15 A2989 RMK A01 T01990150  RH  073%=      5-min Rain = 0
KPD2 250221Z 12004KT 20/15 A2989 RMK A01 T01990150  RH  073%=      5-min Rain = 0
KPD2 250222Z 10005KT 20/15 A2988 RMK A01 T01990150  RH  073%=      5-min Rain = 0
KPD2 250223Z 11005KT 20/15 A2988 RMK A01 T01980150  RH  074%=      5-min Rain = 0
KPD2 250224Z 11006KT 20/15 A2988 RMK A01 T01980150  RH  074%=      5-min Rain = 0
KPD2 250225Z 09006KT 20/15 A2988 RMK A01 T01980150  RH  074%=      5-min Rain = 0
KPD2 250226Z 09005KT 20/15 A2988 RMK A01 T01980150  RH  074%=      5-min Rain = 0
KPD2 250227Z 10005KT 20/15 A2988 RMK A01 T01980150  RH  074%=      5-min Rain = 0
KPD2 250228Z 10004KT 20/15 A2988 RMK A01 T01980150  RH  074%=      5-min Rain = 0
KPD2 250229Z 08004KT 20/15 A2988 RMK A01 T01980150  RH  074%=      5-min Rain = 0
KPD2 250230Z 07003KT 20/15 A2988 RMK A01 T01980150  RH  073%=      5-min Rain = 0
KPD2 250231Z 10003KT 20/15 A2988 RMK A01 T01980149  RH  073%=      5-min Rain = 0
KPD2 250232Z 13005KT 20/15 A2988 RMK A01 T01980149  RH  073%=      5-min Rain = 0
KPD2 250233Z 11005KT 20/15 A2988 RMK A01 T01980149  RH  073%=      5-min Rain = 0
KPD2 250234Z 10005KT 20/15 A2988 RMK A01 T01990150  RH  073%=      5-min Rain = 0
KPD2 250235Z 10005KT 20/15 A2988 RMK A01 T01990149  RH  073%=      5-min Rain = 0
KPD2 250236Z 11005KT 20/15 A2987 RMK A01 T01990148  RH  073%=      5-min Rain = 0
KPD2 250237Z 13006KT 20/15 A2987 RMK A01 T01990148  RH  072%=      5-min Rain = 0
KPD2 250238Z 15006KT 20/15 A2987 RMK A01 T02000147  RH  072%=      5-min Rain = 0
KPD2 250239Z 14007KT 20/15 A2987 RMK A01 T02010147  RH  071%=      5-min Rain = 0
KPD2 250240Z 13007KT 20/15 A2987 RMK A01 T02010147  RH  071%=      5-min Rain = 0
KPD2 250241Z 15008KT 20/15 A2987 RMK A01 T02010147  RH  071%=      5-min Rain = 0
KPD2 250242Z 16005KT 20/15 A2988 RMK A01 T02020147  RH  071%=      5-min Rain = 0
KPD2 250243Z 15005KT 20/15 A2988 RMK A01 T02020146  RH  070%=      5-min Rain = 0
KPD2 250244Z 17006KT 20/15 A2988 RMK A01 T02030147  RH  070%=      5-min Rain = 0
KPD2 250245Z 16005KT 20/15 A2988 RMK A01 T02020146  RH  070%=      5-min Rain = 0
KPD2 250246Z 11003KT 20/15 A2988 RMK A01 T02020148  RH  071%=      5-min Rain = 0
KPD2 250247Z 15002KT 20/15 A2987 RMK A01 T02020148  RH  071%=      5-min Rain = 0
KPD2 250248Z 18002KT 20/15 A2987 RMK A01 T02020148  RH  071%=      5-min Rain = 0
KPD2 250249Z 16004KT 20/15 A2987 RMK A01 T02010148  RH  071%=      5-min Rain = 0
KPD2 250250Z 12005KT 20/15 A2988 RMK A01 T02010147  RH  071%=      5-min Rain = 0
KPD2 250251Z 13004KT 20/15 A2988 RMK A01 T02010148  RH  071%=      5-min Rain = 0
KPD2 250252Z 13004KT 20/15 A2988 RMK A01 T02010146  RH  071%=      5-min Rain = 0
KPD2 250253Z 11003KT 20/15 A2988 RMK A01 T02000147  RH  071%=      5-min Rain = 0
KPD2 250254Z 14005KT 20/15 A2987 RMK A01 T02010147  RH  071%=      5-min Rain = 0
KPD2 250255Z 13008KT 20/15 A2987 RMK A01 T02000146  RH  071%=      5-min Rain = 0
KPD2 250256Z 14005G10KT 20/15 A2987 RMK A01 T02010145  RH  070%=      5-min Rain = 0
KPD2 250257Z 11006G11KT 20/15 A2987 RMK A01 T02010145  RH  070%=      5-min Rain = 0
KPD2 250258Z 12008KT 20/15 A2987 RMK A01 T02020146  RH  070%=      5-min Rain = 0
KPD2 250259Z 13010KT 20/15 A2987 RMK A01 T02020146  RH  070%=      5-min Rain = 0
KPD2 250300Z 14005KT 20/15 A2988 RMK A01 T02020145  RH  069%=      5-min Rain = 0
KPD2 250301Z 12003KT 20/15 A2988 RMK A01 T02030145  RH  069%=      5-min Rain = 0
KPD2 250302Z 12004KT 20/15 A2988 RMK A01 T02030146  RH  070%=      5-min Rain = 0
KPD2 250303Z 13005KT 20/15 A2988 RMK A01 T02030146  RH  070%=      5-min Rain = 0
KPD2 250304Z 16007KT 20/15 A2988 RMK A01 T02030146  RH  070%=      5-min Rain = 0
KPD2 250305Z 13006G11KT 20/15 A2988 RMK A01 T02030145  RH  069%=      5-min Rain = 0
KPD2 250306Z 13007G12KT 20/15 A2989 RMK A01 T02030146  RH  070%=      5-min Rain = 0
KPD2 250307Z 18002KT 20/15 A2989 RMK A01 T02030145  RH  069%=      5-min Rain = 0
KPD2 250308Z 10003G9KT 20/15 A2989 RMK A01 T02030145  RH  069%=      5-min Rain = 0
KPD2 250309Z 12008KT 20/15 A2989 RMK A01 T02030145  RH  069%=      5-min Rain = 0
KPD2 250310Z 13007KT 20/15 A2989 RMK A01 T02030146  RH  070%=      5-min Rain = 0
KPD2 250311Z 12003KT 20/15 A2989 RMK A01 T02030146  RH  070%=      5-min Rain = 0
KPD2 250312Z 11005KT 20/15 A2989 RMK A01 T02030146  RH  070%=      5-min Rain = 0
KPD2 250313Z 10005KT 20/15 A2989 RMK A01 T02030146  RH  070%=      5-min Rain = 0
KPD2 250314Z 11006KT 20/15 A2989 RMK A01 T02020146  RH  070%=      5-min Rain = 0
KPD2 250315Z 12005KT 20/15 A2989 RMK A01 T02020146  RH  070%=      5-min Rain = 0
KPD2 250316Z 12005KT 20/15 A2989 RMK A01 T02020146  RH  070%=      5-min Rain = 0
KPD2 250317Z 13003KT 20/15 A299 RMK A01 T02020146  RH  070%=      5-min Rain = 0
KPD2 250318Z 13006KT 20/15 A299 RMK A01 T02010146  RH  070%=      5-min Rain = 0
KPD2 250319Z 13005KT 20/15 A299 RMK A01 T02010146  RH  071%=      5-min Rain = 0
KPD2 250320Z 13005KT 20/15 A299 RMK A01 T02010146  RH  071%=      5-min Rain = 0
KPD2 250321Z 17005KT 20/15 A299 RMK A01 T02020147  RH  071%=      5-min Rain = 0
KPD2 250322Z 14003KT 20/15 A299 RMK A01 T02010146  RH  071%=      5-min Rain = 0
KPD2 250323Z 16003KT 20/15 A299 RMK A01 T02010146  RH  071%=      5-min Rain = 0
KPD2 250324Z 17003KT 20/15 A299 RMK A01 T02010146  RH  070%=      5-min Rain = 0
KPD2 250325Z 15003KT 20/15 A299 RMK A01 T02010145  RH  070%=      5-min Rain = 0
KPD2 250326Z 10002KT 20/15 A299 RMK A01 T02010145  RH  070%=      5-min Rain = 0
KPD2 250327Z 08001KT 20/15 A299 RMK A01 T02010146  RH  070%=      5-min Rain = 0
KPD2 250328Z 14003KT 20/15 A299 RMK A01 T02010146  RH  071%=      5-min Rain = 0
KPD2 250329Z 20002KT 20/15 A2991 RMK A01 T02000146  RH  071%=      5-min Rain = 0
KPD2 250330Z 22002KT 20/15 A2991 RMK A01 T02010146  RH  071%=      5-min Rain = 0
KPD2 250331Z 15003KT 20/15 A2991 RMK A01 T02010145  RH  070%=      5-min Rain = 0
KPD2 250332Z 13003KT 20/15 A2991 RMK A01 T02010145  RH  070%=      5-min Rain = 0
KPD2 250333Z 14002KT 20/15 A2991 RMK A01 T02010145  RH  070%=      5-min Rain = 0
KPD2 250334Z 09002KT 20/15 A2991 RMK A01 T02010145  RH  070%=      5-min Rain = 0
KPD2 250335Z 11001KT 20/15 A2991 RMK A01 T02010145  RH  070%=      5-min Rain = 0
KPD2 250336Z 14003KT 20/15 A2991 RMK A01 T02010145  RH  070%=      5-min Rain = 0
KPD2 250337Z 11002KT 20/15 A2991 RMK A01 T02000145  RH  071%=      5-min Rain = 0
KPD2 250338Z 09003KT 20/15 A2991 RMK A01 T02000145  RH  071%=      5-min Rain = 0
KPD2 250339Z 13003KT 20/15 A2991 RMK A01 T01990145  RH  071%=      5-min Rain = 0
KPD2 250340Z 12004KT 20/15 A2991 RMK A01 T01990145  RH  071%=      5-min Rain = 0
KPD2 250341Z 11004KT 20/15 A2991 RMK A01 T01990145  RH  071%=      5-min Rain = 0
KPD2 250342Z 09005KT 20/15 A2991 RMK A01 T01990145  RH  071%=      5-min Rain = 0
KPD2 250343Z 09005KT 20/15 A2991 RMK A01 T01990145  RH  071%=      5-min Rain = 0
KPD2 250344Z 13004KT 20/15 A2991 RMK A01 T01990145  RH  071%=      5-min Rain = 0
KPD2 250345Z 10005KT 20/15 A2991 RMK A01 T02000145  RH  071%=      5-min Rain = 0
KPD2 250346Z 10005KT 20/15 A2991 RMK A01 T02000145  RH  071%=      5-min Rain = 0
KPD2 250347Z 10007KT 20/15 A2991 RMK A01 T02000145  RH  071%=      5-min Rain = 0
KPD2 250348Z 10006KT 20/15 A2991 RMK A01 T02000145  RH  071%=      5-min Rain = 0
KPD2 250349Z 10004KT 20/14 A2991 RMK A01 T02000144  RH  070%=      5-min Rain = 0
KPD2 250350Z 10006KT 20/14 A2991 RMK A01 T02000144  RH  070%=      5-min Rain = 0
KPD2 250351Z 10007KT 20/14 A2991 RMK A01 T02000144  RH  070%=      5-min Rain = 0
KPD2 250352Z 11005KT 20/14 A2991 RMK A01 T02000144  RH  070%=      5-min Rain = 0
KPD2 250353Z 12005KT 20/14 A2991 RMK A01 T02010144  RH  070%=      5-min Rain = 0
KPD2 250354Z 12006KT 20/14 A2991 RMK A01 T02010144  RH  070%=      5-min Rain = 0
KPD2 250355Z 12007KT 20/14 A2991 RMK A01 T02010144  RH  070%=      5-min Rain = 0
KPD2 250356Z 11009KT 20/14 A2991 RMK A01 T02010144  RH  070%=      5-min Rain = 0
KPD2 250357Z 12006KT 20/14 A2991 RMK A01 T02010144  RH  070%=      5-min Rain = 0
KPD2 250358Z 13007KT 20/14 A2991 RMK A01 T02010144  RH  070%=      5-min Rain = 0
KPD2 250359Z 12007KT 20/14 A2991 RMK A01 T02010144  RH  070%=      5-min Rain = 0
KPD2 250400Z 12006KT 20/14 A2991 RMK A01 T02010144  RH  070%=      5-min Rain = 0
KPD2 250401Z 13007KT 20/15 A2991 RMK A01 T02010145  RH  070%=      5-min Rain = 0
KPD2 250402Z 13006KT 20/15 A2991 RMK A01 T02010145  RH  070%=      5-min Rain = 0
KPD2 250403Z 13005KT 20/15 A2991 RMK A01 T02000145  RH  070%=      5-min Rain = 0
KPD2 250404Z 14007KT 20/15 A2991 RMK A01 T02000145  RH  071%=      5-min Rain = 0
KPD2 250405Z 15006KT 20/15 A2992 RMK A01 T02000146  RH  071%=      5-min Rain = 0
KPD2 250406Z 17005KT 20/15 A2992 RMK A01 T01990146  RH  071%=      5-min Rain = 0
KPD2 250407Z 14006KT 20/15 A2992 RMK A01 T01990146  RH  072%=      5-min Rain = 0
KPD2 250408Z 15009KT 20/15 A2991 RMK A01 T01990147  RH  072%=      5-min Rain = 0
KPD2 250409Z 14008KT 20/15 A2991 RMK A01 T02000147  RH  071%=      5-min Rain = 0
KPD2 250410Z 13005KT 20/15 A2991 RMK A01 T02030148  RH  071%=      5-min Rain = 0
KPD2 250411Z 14006KT 21/15 A2992 RMK A01 T02050148  RH  070%=      5-min Rain = 0
KPD2 250412Z 13006KT 21/15 A2992 RMK A01 T02050147  RH  070%=      5-min Rain = 0
KPD2 250413Z 14007KT 20/15 A2992 RMK A01 T02040147  RH  070%=      5-min Rain = 0
KPD2 250414Z 12006KT 20/15 A2992 RMK A01 T02030147  RH  070%=      5-min Rain = 0
KPD2 250415Z 13007KT 20/15 A2992 RMK A01 T02020146  RH  070%=      5-min Rain = 0
KPD2 250416Z 13008KT 20/15 A2993 RMK A01 T02010146  RH  071%=      5-min Rain = 0
KPD2 250417Z 12008KT 20/15 A2993 RMK A01 T02000146  RH  071%=      5-min Rain = 0
KPD2 250418Z 12009KT 20/15 A2993 RMK A01 T01990146  RH  071%=      5-min Rain = 0
KPD2 250419Z 13007KT 20/15 A2993 RMK A01 T01980145  RH  071%=      5-min Rain = 0
KPD2 250420Z 13007KT 20/15 A2993 RMK A01 T01980145  RH  072%=      5-min Rain = 0
KPD2 250421Z 12006KT 20/15 A2993 RMK A01 T01970145  RH  072%=      5-min Rain = 0
KPD2 250422Z 12007KT 20/15 A2993 RMK A01 T01960145  RH  072%=      5-min Rain = 0
KPD2 250423Z 12006KT 20/15 A2993 RMK A01 T01950145  RH  072%=      5-min Rain = 0
KPD2 250424Z 11007KT 20/15 A2993 RMK A01 T01950145  RH  073%=      5-min Rain = 0
KPD2 250425Z 12005KT 20/15 A2993 RMK A01 T01950145  RH  073%=      5-min Rain = 0
KPD2 250426Z 12007KT 20/15 A2993 RMK A01 T01950145  RH  073%=      5-min Rain = 0
KPD2 250427Z 12007KT 19/15 A2993 RMK A01 T01940145  RH  073%=      5-min Rain = 0
KPD2 250428Z 13007KT 19/15 A2993 RMK A01 T01940145  RH  073%=      5-min Rain = 0
KPD2 250429Z 13007KT 19/15 A2993 RMK A01 T01940145  RH  074%=      5-min Rain = 0
KPD2 250430Z 13008KT 19/15 A2993 RMK A01 T01930145  RH  074%=      5-min Rain = 0
KPD2 250431Z 12007KT 19/15 A2993 RMK A01 T01930145  RH  074%=      5-min Rain = 0
KPD2 250432Z 12007KT 19/15 A2993 RMK A01 T01930146  RH  074%=      5-min Rain = 0
KPD2 250433Z 12007KT 19/15 A2993 RMK A01 T01930146  RH  074%=      5-min Rain = 0
KPD2 250434Z 13005KT 19/15 A2993 RMK A01 T01930146  RH  074%=      5-min Rain = 0
KPD2 250435Z 13008KT 19/15 A2993 RMK A01 T01930146  RH  074%=      5-min Rain = 0
KPD2 250436Z 13009KT 19/15 A2993 RMK A01 T01930146  RH  074%=      5-min Rain = 0
KPD2 250437Z 14005KT 19/15 A2994 RMK A01 T01920146  RH  075%=      5-min Rain = 0
KPD2 250438Z 13007KT 19/15 A2994 RMK A01 T01920146  RH  075%=      5-min Rain = 0
KPD2 250439Z 14006KT 19/15 A2994 RMK A01 T01910146  RH  075%=      5-min Rain = 0
KPD2 250440Z 13005KT 19/15 A2994 RMK A01 T01910146  RH  075%=      5-min Rain = 0
KPD2 250441Z 13004KT 19/15 A2994 RMK A01 T01900146  RH  076%=      5-min Rain = 0
KPD2 250442Z 13005KT 19/15 A2994 RMK A01 T01890147  RH  076%=      5-min Rain = 0
KPD2 250443Z 13005KT 19/15 A2994 RMK A01 T01890146  RH  076%=      5-min Rain = 0
KPD2 250444Z 13006KT 19/15 A2994 RMK A01 T01880147  RH  077%=      5-min Rain = 0
KPD2 250445Z 13005KT 19/15 A2994 RMK A01 T01880146  RH  077%=      5-min Rain = 0
KPD2 250446Z 13005KT 19/15 A2994 RMK A01 T01870146  RH  077%=      5-min Rain = 0
KPD2 250447Z 14006KT 19/15 A2994 RMK A01 T01870147  RH  077%=      5-min Rain = 0
KPD2 250448Z 14006KT 19/15 A2994 RMK A01 T01860146  RH  078%=      5-min Rain = 0
KPD2 250449Z 14005KT 19/15 A2994 RMK A01 T01860146  RH  078%=      5-min Rain = 0
KPD2 250450Z 14006KT 19/15 A2995 RMK A01 T01860147  RH  078%=      5-min Rain = 0
KPD2 250451Z 14005KT 19/15 A2995 RMK A01 T01860146  RH  078%=      5-min Rain = 0
KPD2 250452Z 13005KT 19/15 A2995 RMK A01 T01850146  RH  078%=      5-min Rain = 0
KPD2 250453Z 13005KT 19/15 A2995 RMK A01 T01850146  RH  078%=      5-min Rain = 0
KPD2 250454Z 13005KT 19/15 A2995 RMK A01 T01850146  RH  078%=      5-min Rain = 0
KPD2 250455Z 13005KT 18/15 A2994 RMK A01 T01840146  RH  078%=      5-min Rain = 0
KPD2 250456Z 12004KT 18/15 A2994 RMK A01 T01840146  RH  078%=      5-min Rain = 0
KPD2 250457Z 13004KT 18/15 A2994 RMK A01 T01830145  RH  079%=      5-min Rain = 0
KPD2 250458Z 13005KT 18/15 A2995 RMK A01 T01830146  RH  079%=      5-min Rain = 0
KPD2 250459Z 13006KT 18/15 A2995 RMK A01 T01830146  RH  079%=      5-min Rain = 0

Page generated in 0.0704 seconds.